Darstellungsparameter: Aktuell verwendete Einstellungen:
Skalierung der Graphiken ... ?
xyx+y,   Skalierungsfaktor:      Skalierung: Modus: x, Faktor: 1
Darstellungszeitraum ... ?
Vom - - bis: - -   Zeitraum: 06.09.2011 - 05.09.2016
Min/Max/Avg-Anzeige ... ?
Zeige MMA aktuell
Zeige MMA Monat
Zeige MMA alles
Zeige --A aktuell
Zeige --A Monat
Zeige --A alles
Keine MMA-Anzeige
MMA:
Keine MMA-Graphiken
MMA-Basis: 06.09.2011 - 05.09.2016
Quicknavigation für Darstellung... ?
Tage:      1T, 2T, 3T, 5T -1T -2T -3T -5T +1T +2T +3T +5T
Wochen: 1W, 2W, 3W -1W -2W -3W +1W +2W +3W
Monate: 1M, 3M, 6M -1M -3M -6M +1M +3M +6M
Jahre:    1J, 3J, 5J, 10J -1J -3J -5J -10J +1J +3J +5J +10J
Nutze für die Darstellung ... ?
Originaldaten oder ...
Mittelwerte Minima Maxima auf...
Stundenbasis Tagesbasis Wochenbasis
Monatsbasis Jahresbasis      Datenbasis: Mittelwerte auf Tagesbasis
Darstellen als:
Statistik (Auto) Statistik J:M      Darstellung:
Zur Graphik,    zurück zur Übersicht aller Sensoren.
 
Tabellarische Datenbersicht: ?
 
Sensor: Nr:Datum:Temp:Feuchte:Taupunkt:
Aussen-T/F 1 06-09-2011 00:00:00 15.93333 C 57.8333 % 7.64 C
2 07-09-2011 00:00:00 16.43 C 56.2417 % 7.7 C
3 08-09-2011 00:00:00 15.3775 C 59.5333 % 7.55 C
4 09-09-2011 00:00:00 18.46 C 74.5500 % 13.86 C
5 10-09-2011 00:00:00 21.15667 C 77.6667 % 17.1 C
6 11-09-2011 00:00:00 17.895 C 81.2500 % 14.64 C
7 12-09-2011 00:00:00 17.43583 C 68.8250 % 11.65 C
8 13-09-2011 00:00:00 18.005 C 66.8333 % 11.75 C
9 14-09-2011 00:00:00 14.43917 C 60.2417 % 6.84 C
10 15-09-2011 00:00:00 13.91583 C 66.4583 % 7.78 C
11 16-09-2011 00:00:00 12.79667 C 78.8750 % 9.23 C
12 17-09-2011 00:00:00 16.78824 C 67.5798 % 10.76 C
13 18-09-2011 00:00:00 12.7625 C 73.2333 % 8.1 C
14 19-09-2011 00:00:00 12.76833 C 68.7167 % 7.17 C
15 20-09-2011 00:00:00 12.41333 C 74.0667 % 7.93 C
16 21-09-2011 00:00:00 13.775 C 70.1333 % 8.43 C
17 22-09-2011 00:00:00 15.79167 C 59.3417 % 7.89 C
18 23-09-2011 00:00:00 14.20917 C 64.8250 % 7.69 C
19 24-09-2011 00:00:00 12.8025 C 74.2750 % 8.34 C
20 25-09-2011 00:00:00 14.1125 C 76.8000 % 10.11 C
21 26-09-2011 00:00:00 15.74917 C 76.1250 % 11.56 C
22 27-09-2011 00:00:00 17.1525 C 74.8583 % 12.66 C
23 28-09-2011 00:00:00 16.71 C 77.5333 % 12.77 C
24 29-09-2011 00:00:00 16.13167 C 75.2500 % 11.75 C
25 30-09-2011 00:00:00 14.48824 C 75.4034 % 10.2 C
Sensor: Nr:Datum:Temp:Feuchte:Taupunkt:
Aussen-T/F 26 01-10-2011 00:00:00 14.3525 C 77.3833 % 10.45 C
27 02-10-2011 00:00:00 14.74 C 77.1417 % 10.78 C
28 03-10-2011 00:00:00 15.125 C 75.4750 % 10.82 C
29 04-10-2011 00:00:00 16.96167 C 63.1167 % 9.9 C
30 05-10-2011 00:00:00 17.94667 C 59.6250 % 9.98 C
31 06-10-2011 00:00:00 14.175 C 69.3833 % 8.66 C
32 07-10-2011 00:00:00 9.92583 C 66.5083 % 3.99 C
33 08-10-2011 00:00:00 9.01167 C 73.3417 % 4.51 C
34 09-10-2011 00:00:00 9.11667 C 79.0750 % 5.69 C
35 10-10-2011 00:00:00 16.5475 C 68.2167 % 10.67 C
36 11-10-2011 00:00:00 16.37917 C 62.5417 % 9.22 C
37 12-10-2011 00:00:00 15.74333 C 66.8000 % 9.59 C
38 13-10-2011 00:00:00 10.145 C 73.3667 % 5.6 C
39 14-10-2011 00:00:00 6.14286 C 78.8151 % 2.75 C
40 15-10-2011 00:00:00 4.65417 C 78.8000 % 1.3 C
41 16-10-2011 00:00:00 4.29833 C 79.7583 % 1.12 C
42 17-10-2011 00:00:00 6.42917 C 82.1833 % 3.62 C
43 18-10-2011 00:00:00 8.99833 C 81.0167 % 5.92 C
44 19-10-2011 00:00:00 8.2025 C 70.7333 % 3.21 C
45 20-10-2011 00:00:00 5.4275 C 79.8333 % 2.23 C
46 21-10-2011 00:00:00 3.16333 C 87.6917 % 1.32 C
47 22-10-2011 00:00:00 3.45333 C 82.2083 % 0.71 C
48 23-10-2011 00:00:00 2.44833 C 85.8917 % 0.33 C
49 24-10-2011 00:00:00 5.85083 C 75.8167 % 1.92 C
50 25-10-2011 00:00:00 9.17417 C 73.4750 % 4.69 C
Sensor: Nr:Datum:Temp:Feuchte:Taupunkt:
Aussen-T/F 51 26-10-2011 00:00:00 9.305 C 71.1750 % 4.36 C
52 27-10-2011 00:00:00 5.69333 C 85.4917 % 3.46 C
53 28-10-2011 00:00:00 8.32857 C 86.7731 % 6.26 C
54 29-10-2011 00:00:00 10.61667 C 83.0000 % 7.85 C
55 30-10-2011 00:00:00 12.2192 C 86.1680 % 9.98 C
56 31-10-2011 00:00:00 11.39 C 86.4000 % 9.2 C
57 01-11-2011 00:00:00 9.17333 C 84.4083 % 6.69 C
58 02-11-2011 00:00:00 10.59667 C 80.8500 % 7.45 C
59 03-11-2011 00:00:00 11.35583 C 71.9417 % 6.48 C
60 04-11-2011 00:00:00 10.15333 C 80.0500 % 6.87 C
61 05-11-2011 00:00:00 10.31333 C 76.4167 % 6.35 C
62 06-11-2011 00:00:00 8.90583 C 84.0333 % 6.36 C
63 07-11-2011 00:00:00 8.85 C 80.9583 % 5.77 C
64 08-11-2011 00:00:00 5.84583 C 87.4583 % 3.93 C
65 09-11-2011 00:00:00 6.5025 C 86.5500 % 4.43 C
66 10-11-2011 00:00:00 6.29328 C 81.6218 % 3.39 C
67 11-11-2011 00:00:00 6.25417 C 76.0750 % 2.36 C
68 12-11-2011 00:00:00 4.20083 C 82.4417 % 1.48 C
69 13-11-2011 00:00:00 4.15833 C 85.7750 % 1.99 C
70 14-11-2011 00:00:00 0.35917 C 92.4167 % -0.72 C
71 15-11-2011 00:00:00 0.25583 C 92.2667 % -0.85 C
72 16-11-2011 00:00:00 -1.305 C 91.7000 % -2.48 C
73 17-11-2011 00:00:00 3.935 C 80.2583 % 0.85 C
74 18-11-2011 00:00:00 7.49833 C 83.7333 % 4.93 C
75 19-11-2011 00:00:00 5.435 C 89.5667 % 3.86 C
Sensor: Nr:Datum:Temp:Feuchte:Taupunkt:
Aussen-T/F 76 20-11-2011 00:00:00 6.58083 C 80.3583 % 3.45 C
77 21-11-2011 00:00:00 1.40917 C 92.2250 % 0.29 C
78 22-11-2011 00:00:00 1.14083 C 92.1583 % 0.01 C
79 23-11-2011 00:00:00 1.59583 C 92.8833 % 0.57 C
80 24-11-2011 00:00:00 2.37083 C 92.1167 % 1.23 C
81 25-11-2011 00:00:00 1.0775 C 85.7083 % -1.04 C
82 26-11-2011 00:00:00 6.25167 C 75.0583 % 2.17 C
83 27-11-2011 00:00:00 7.40833 C 70.7917 % 2.46 C
84 28-11-2011 00:00:00 0.83833 C 92.3250 % -0.26 C
85 29-11-2011 00:00:00 1.88167 C 89.6667 % 0.37 C
86 30-11-2011 00:00:00 4.85083 C 85.9250 % 2.7 C
87 01-12-2011 00:00:00 5.52417 C 87.8333 % 3.67 C
88 02-12-2011 00:00:00 7.12667 C 77.6917 % 3.5 C
89 03-12-2011 00:00:00 6.26583 C 76.7250 % 2.49 C
90 04-12-2011 00:00:00 8.2975 C 80.9000 % 5.22 C
91 05-12-2011 00:00:00 4.38417 C 71.7167 % -0.26 C
92 06-12-2011 00:00:00 4.445 C 67.2500 % -1.08 C
93 07-12-2011 00:00:00 5.57833 C 70.8167 % 0.71 C
94 08-12-2011 00:00:00 6.22333 C 62.1250 % -0.48 C
95 09-12-2011 00:00:00 5.94583 C 71.2167 % 1.14 C
96 10-12-2011 00:00:00 1.885 C 76.4500 % -1.81 C
97 11-12-2011 00:00:00 0.43667 C 83.0417 % -2.1 C
98 12-12-2011 00:00:00 5.96583 C 76.8000 % 2.21 C
99 13-12-2011 00:00:00 6.86417 C 68.8250 % 1.55 C
100 14-12-2011 00:00:00 6.68371 C 80.3447 % 3.55 C
Sensor: Nr:Datum:Temp:Feuchte:Taupunkt:
Aussen-T/F 101 15-12-2011 00:00:00 6.13646 C 77.7778 % 2.56 C
102 16-12-2011 00:00:00 6.07222 C 83.0347 % 3.41 C
103 17-12-2011 00:00:00 3.63507 C 84.7535 % 1.31 C
104 18-12-2011 00:00:00 2.25764 C 86.7604 % 0.29 C
105 19-12-2011 00:00:00 1.70208 C 86.1250 % -0.36 C
106 20-12-2011 00:00:00 2.28715 C 90.9132 % 0.96 C
107 21-12-2011 00:00:00 4.19792 C 87.9167 % 2.38 C
108 22-12-2011 00:00:00 6.57917 C 94.6910 % 5.79 C
109 23-12-2011 00:00:00 8.41806 C 90.8021 % 7 C
110 24-12-2011 00:00:00 5.63368 C 83.5243 % 3.07 C
111 25-12-2011 00:00:00 5.68472 C 86.3750 % 3.59 C
112 26-12-2011 00:00:00 8.12222 C 89.4931 % 6.5 C
113 27-12-2011 00:00:00 8.25139 C 89.0139 % 6.55 C
114 28-12-2011 00:00:00 5.71424 C 86.6597 % 3.67 C
115 29-12-2011 00:00:00 5.51667 C 80.4757 % 2.43 C
116 30-12-2011 00:00:00 4.24861 C 83.3125 % 1.68 C
117 31-12-2011 00:00:00 5.15729 C 93.6007 % 4.21 C
118 01-01-2012 00:00:00 12.02807 C 88.3754 % 10.17 C
119 02-01-2012 00:00:00 8.87847 C 88.2917 % 7.05 C
120 03-01-2012 00:00:00 7.43403 C 81.7917 % 4.53 C
121 04-01-2012 00:00:00 6.56875 C 76.5174 % 2.75 C
122 05-01-2012 00:00:00 6.88368 C 80.3785 % 3.75 C
123 06-01-2012 00:00:00 5.40208 C 81.6389 % 2.52 C
124 07-01-2012 00:00:00 5.54653 C 84.9201 % 3.22 C
125 08-01-2012 00:00:00 5.96042 C 84.6111 % 3.57 C
Sensor: Nr:Datum:Temp:Feuchte:Taupunkt:
Aussen-T/F 126 09-01-2012 00:00:00 6.11424 C 89.9479 % 4.59 C
127 10-01-2012 00:00:00 6.93056 C 91.1319 % 5.59 C
128 11-01-2012 00:00:00 8.11597 C 82.0938 % 5.25 C
129 12-01-2012 00:00:00 8.18819 C 82.4028 % 5.37 C
130 13-01-2012 00:00:00 5.12569 C 75.8264 % 1.22 C
131 14-01-2012 00:00:00 3.95417 C 78.8958 % 0.63 C
132 15-01-2012 00:00:00 -0.23715 C 94.8993 % -0.95 C
133 16-01-2012 00:00:00 -1.80312 C 94.0521 % -2.63 C
134 17-01-2012 00:00:00 -2.78368 C 92.5069 % -3.83 C
135 18-01-2012 00:00:00 -0.12708 C 89.9653 % -1.57 C
136 19-01-2012 00:00:00 6.67639 C 90.1007 % 5.17 C
137 20-01-2012 00:00:00 4.025 C 86.9236 % 2.05 C
138 21-01-2012 00:00:00 5.73681 C 89.5382 % 4.15 C
139 22-01-2012 00:00:00 6.85764 C 76.0660 % 2.94 C
140 23-01-2012 00:00:00 5.22708 C 82.6806 % 2.53 C
141 24-01-2012 00:00:00 3.1191 C 90.7222 % 1.75 C
142 25-01-2012 00:00:00 0.47708 C 94.7813 % -0.26 C
143 26-01-2012 00:00:00 1.84132 C 84.3368 % -0.51 C
144 27-01-2012 00:00:00 2.58437 C 92.0104 % 1.42 C
145 28-01-2012 00:00:00 2.69896 C 87.8090 % 0.89 C
146 29-01-2012 00:00:00 0.84583 C 81.3299 % -1.98 C
147 30-01-2012 00:00:00 -0.00208 C 80.3854 % -2.97 C
148 31-01-2012 00:00:00 -1.90972 C 70.0243 % -6.64 C
149 01-02-2012 00:00:00 -5.28403 C 61.1667 % -11.58 C
150 02-02-2012 00:00:00 -7.12396 C 51.7535 % -15.35 C
Sensor: Nr:Datum:Temp:Feuchte:Taupunkt:
Aussen-T/F 151 03-02-2012 00:00:00 -8.52361 C 68.2153 % -13.32 C
152 04-02-2012 00:00:00 -8.31389 C 77.7396 % -11.5 C
153 05-02-2012 00:00:00 -9.04861 C 72.3715 % -13.1 C
154 06-02-2012 00:00:00 -9.67674 C 69.6979 % -14.16 C
155 07-02-2012 00:00:00 -9.19832 C 69.3067 % -13.77 C
156 08-02-2012 00:00:00 -5.57083 C 72.6528 % -9.69 C
157 09-02-2012 00:00:00 -7.39479 C 86.5868 % -9.24 C
158 10-02-2012 00:00:00 -6.11875 C 75.6354 % -9.71 C
159 11-02-2012 00:00:00 -8.24931 C 70.5451 % -12.64 C
160 12-02-2012 00:00:00 -6.58063 C 72.4466 % -10.7 C
161 13-02-2012 00:00:00 -0.88993 C 82.6458 % -3.46 C
162 14-02-2012 00:00:00 1.59931 C 93.4410 % 0.66 C
163 15-02-2012 00:00:00 3.97674 C 86.0694 % 1.86 C
164 16-02-2012 00:00:00 3.54896 C 91.1875 % 2.25 C
165 17-02-2012 00:00:00 5.57917 C 87.8576 % 3.73 C
166 18-02-2012 00:00:00 6.37083 C 88.0556 % 4.54 C
167 19-02-2012 00:00:00 2.99271 C 87.9861 % 1.2 C
168 20-02-2012 00:00:00 1.18333 C 84.9583 % -1.06 C
169 21-02-2012 00:00:00 1.84583 C 78.4063 % -1.5 C
170 22-02-2012 00:00:00 3.17951 C 81.1493 % 0.27 C
171 23-02-2012 00:00:00 6.17352 C 81.6864 % 3.28 C
172 24-02-2012 00:00:00 9.38101 C 86.6938 % 7.28 C
173 25-02-2012 00:00:00 8.6186 C 80.9439 % 5.54 C
174 26-02-2012 00:00:00 5.29167 C 88.4757 % 3.55 C
175 27-02-2012 00:00:00 5.81944 C 83.3333 % 3.22 C
Sensor: Nr:Datum:Temp:Feuchte:Taupunkt:
Aussen-T/F 176 28-02-2012 00:00:00 8.57639 C 85.4861 % 6.28 C
177 29-02-2012 00:00:00 9.49583 C 92.3403 % 8.32 C
178 01-03-2012 00:00:00 9.01563 C 93.6979 % 8.06 C
179 02-03-2012 00:00:00 8.57986 C 92.6771 % 7.46 C
180 03-03-2012 00:00:00 7.91597 C 90.3438 % 6.43 C
181 04-03-2012 00:00:00 8.65625 C 81.6354 % 5.7 C
182 05-03-2012 00:00:00 5.81597 C 77.6597 % 2.22 C
183 06-03-2012 00:00:00 5.43924 C 73.2222 % 1.04 C
184 07-03-2012 00:00:00 2.91784 C 81.1970 % 0.02 C
185 08-03-2012 00:00:00 5.35833 C 80.5347 % 2.29 C
186 09-03-2012 00:00:00 4.88437 C 78.4410 % 1.46 C
187 10-03-2012 00:00:00 8.58723 C 78.8759 % 5.14 C
188 11-03-2012 00:00:00 9.26151 C 82.9496 % 6.52 C
189 12-03-2012 00:00:00 8.06347 C 86.5240 % 5.96 C
190 13-03-2012 00:00:00 7.68299 C 83.6458 % 5.1 C
191 14-03-2012 00:00:00 6.93542 C 78.8819 % 3.53 C
192 15-03-2012 00:00:00 7.07812 C 79.2431 % 3.73 C
193 16-03-2012 00:00:00 10.0412 C 69.7077 % 4.77 C
194 17-03-2012 00:00:00 9.42917 C 75.0799 % 5.24 C
195 18-03-2012 00:00:00 8.64931 C 83.8368 % 6.07 C
196 19-03-2012 00:00:00 7.34303 C 72.1270 % 2.66 C
197 20-03-2012 00:00:00 6.68807 C 68.1687 % 1.25 C
198 21-03-2012 00:00:00 7.73902 C 69.3206 % 2.49 C
199 22-03-2012 00:00:00 10.04583 C 71.3403 % 5.1 C
200 23-03-2012 00:00:00 11.69132 C 71.9826 % 6.82 C
Sensor: Nr:Datum:Temp:Feuchte:Taupunkt:
Aussen-T/F 201 24-03-2012 00:00:00 11.62674 C 70.9132 % 6.54 C
202 25-03-2012 00:00:00 12.80873 C 62.8291 % 5.91 C
203 26-03-2012 00:00:00 11.16806 C 58.5764 % 3.36 C
204 27-03-2012 00:00:00 11.10694 C 65.9826 % 5 C
205 28-03-2012 00:00:00 11.74201 C 67.7188 % 5.98 C
206 29-03-2012 00:00:00 9.58194 C 71.1354 % 4.62 C
207 30-03-2012 00:00:00 9.39062 C 79.1701 % 5.97 C
208 31-03-2012 00:00:00 7.98706 C 76.3042 % 4.08 C
209 01-04-2012 00:00:00 4.77396 C 63.6736 % -1.51 C
210 02-04-2012 00:00:00 6.69514 C 71.1493 % 1.85 C
211 03-04-2012 00:00:00 11.08125 C 62.9931 % 4.31 C
212 04-04-2012 00:00:00 9.89722 C 82.2743 % 7.02 C
213 05-04-2012 00:00:00 7.74514 C 80.8958 % 4.68 C
214 06-04-2012 00:00:00 7.88292 C 67.6655 % 2.28 C
215 07-04-2012 00:00:00 5.61389 C 72.7882 % 1.13 C
216 08-04-2012 00:00:00 5.19194 C 54.1941 % -3.29 C
217 09-04-2012 00:00:00 7.24583 C 83.3264 % 4.61 C
218 10-04-2012 00:00:00 11.25451 C 77.8646 % 7.54 C
219 11-04-2012 00:00:00 9.71215 C 72.8056 % 5.08 C
220 12-04-2012 00:00:00 6.41736 C 84.4444 % 3.99 C
221 13-04-2012 00:00:00 6.76632 C 81.2847 % 3.79 C
222 14-04-2012 00:00:00 7.83021 C 71.5486 % 3.02 C
223 15-04-2012 00:00:00 8.52361 C 73.9826 % 4.16 C
224 16-04-2012 00:00:00 5.92438 C 63.9835 % -0.36 C
225 17-04-2012 00:00:00 5.90382 C 59.8090 % -1.3 C
Sensor: Nr:Datum:Temp:Feuchte:Taupunkt:
Aussen-T/F 226 18-04-2012 00:00:00 8.72674 C 72.5451 % 4.08 C
227 19-04-2012 00:00:00 8.47422 C 80.8084 % 5.37 C
228 20-04-2012 00:00:00 7.34574 C 84.4529 % 4.9 C
229 21-04-2012 00:00:00 8.16701 C 81.3229 % 5.16 C
230 22-04-2012 00:00:00 7.84306 C 80.2049 % 4.65 C
231 23-04-2012 00:00:00 8.39097 C 79.6389 % 5.08 C
232 24-04-2012 00:00:00 8.89757 C 84.6181 % 6.45 C
233 25-04-2012 00:00:00 10.14167 C 78.2292 % 6.53 C
234 26-04-2012 00:00:00 11.47083 C 79.8958 % 8.13 C
235 27-04-2012 00:00:00 12.5625 C 82.5104 % 9.67 C
236 28-04-2012 00:00:00 18.10903 C 72.5139 % 13.09 C
237 29-04-2012 00:00:00 16.89826 C 73.1979 % 12.07 C
238 30-04-2012 00:00:00 17.93194 C 63.6007 % 10.94 C
239 01-05-2012 00:00:00 17.12465 C 71.7708 % 11.99 C
240 02-05-2012 00:00:00 15.24479 C 86.9549 % 13.09 C
241 03-05-2012 00:00:00 13.43472 C 77.5035 % 9.59 C
242 04-05-2012 00:00:00 14.57083 C 73.6806 % 9.93 C
243 05-05-2012 00:00:00 11.45069 C 92.9271 % 10.35 C
244 06-05-2012 00:00:00 10.57674 C 92.8021 % 9.46 C
245 07-05-2012 00:00:00 10.38681 C 83.5556 % 7.73 C
246 08-05-2012 00:00:00 13.89063 C 73.1215 % 9.16 C
247 09-05-2012 00:00:00 16.78229 C 82.0903 % 13.71 C
248 10-05-2012 00:00:00 19.11111 C 78.7257 % 15.33 C
249 11-05-2012 00:00:00 19.125 C 80.7014 % 15.73 C
250 12-05-2012 00:00:00 11.31289 C 69.8188 % 6.01 C
Sensor: Nr:Datum:Temp:Feuchte:Taupunkt:
Aussen-T/F 251 13-05-2012 00:00:00 9.38646 C 66.5382 % 3.48 C
252 14-05-2012 00:00:00 11.40799 C 62.7778 % 4.57 C
253 15-05-2012 00:00:00 9.5625 C 74.6979 % 5.3 C
254 16-05-2012 00:00:00 8.66597 C 76.0417 % 4.69 C
255 17-05-2012 00:00:00 9.38889 C 67.5799 % 3.7 C
256 18-05-2012 00:00:00 12.68299 C 77.1667 % 8.79 C
257 19-05-2012 00:00:00 15.71389 C 82.6667 % 12.77 C
258 20-05-2012 00:00:00 17.6684 C 78.6076 % 13.91 C
259 21-05-2012 00:00:00 18.52986 C 81.4410 % 15.29 C
260 22-05-2012 00:00:00 21.31944 C 73.3576 % 16.36 C
261 23-05-2012 00:00:00 18.79965 C 89.2743 % 17 C
262 24-05-2012 00:00:00 20.69687 C 73.7639 % 15.85 C
263 25-05-2012 00:00:00 19.45313 C 48.2882 % 8.25 C
264 26-05-2012 00:00:00 18.11007 C 54.3056 % 8.75 C
265 27-05-2012 00:00:00 18.05868 C 62.2743 % 10.74 C
266 28-05-2012 00:00:00 18.93417 C 63.8705 % 11.95 C
267 29-05-2012 00:00:00 18.46288 C 64.9508 % 11.76 C
268 30-05-2012 00:00:00 17.68438 C 78.7569 % 13.95 C
269 31-05-2012 00:00:00 16.03021 C 84.4167 % 13.4 C
270 01-06-2012 00:00:00 15.74271 C 76.1632 % 11.56 C
271 02-06-2012 00:00:00 15.19271 C 70.5938 % 9.89 C
272 03-06-2012 00:00:00 12.60255 C 88.8727 % 10.82 C
273 04-06-2012 00:00:00 13.31389 C 85.8576 % 11 C
274 05-06-2012 00:00:00 12.15312 C 69.0486 % 6.65 C
275 06-06-2012 00:00:00 13.09444 C 86.8056 % 10.95 C
Sensor: Nr:Datum:Temp:Feuchte:Taupunkt:
Aussen-T/F 276 07-06-2012 00:00:00 16.45799 C 88.8576 % 14.62 C
277 08-06-2012 00:00:00 17.34097 C 72.3854 % 12.33 C
278 09-06-2012 00:00:00 14.79028 C 66.1215 % 8.53 C
279 10-06-2012 00:00:00 15.29514 C 66.6736 % 9.14 C
280 11-06-2012 00:00:00 14.57014 C 84.7083 % 12.03 C
281 12-06-2012 00:00:00 14.40729 C 86.0764 % 12.11 C
282 13-06-2012 00:00:00 12.57363 C 92.7692 % 11.44 C
283 14-06-2012 00:00:00 14.15694 C 81.5104 % 11.04 C
284 15-06-2012 00:00:00 16.11806 C 85.0833 % 13.61 C
285 16-06-2012 00:00:00 15.40799 C 92.7326 % 14.24 C
286 17-06-2012 00:00:00 17.28021 C 70.4549 % 11.86 C
287 18-06-2012 00:00:00 18.57292 C 74.0694 % 13.87 C
288 19-06-2012 00:00:00 17.44028 C 82.5590 % 14.44 C
289 20-06-2012 00:00:00 16.35833 C 96.8785 % 15.86 C
290 21-06-2012 00:00:00 18.41354 C 89.4583 % 16.65 C
291 22-06-2012 00:00:00 16.36181 C 75.7083 % 12.07 C
292 23-06-2012 00:00:00 16.63472 C 71.3924 % 11.44 C
293 24-06-2012 00:00:00 14.73507 C 82.4306 % 11.78 C
294 25-06-2012 00:00:00 15.09028 C 78.7917 % 11.44 C
295 26-06-2012 00:00:00 16.43125 C 73.6111 % 11.71 C
296 27-06-2012 00:00:00 18.07569 C 84.8264 % 15.48 C
297 28-06-2012 00:00:00 21.87465 C 80.2743 % 18.32 C
298 29-06-2012 00:00:00 20.49063 C 90.0868 % 18.81 C
299 30-06-2012 00:00:00 20.14965 C 78.6563 % 16.32 C
300 01-07-2012 00:00:00 17.98889 C 81.2882 % 14.74 C
Sensor: Nr:Datum:Temp:Feuchte:Taupunkt:
Aussen-T/F 301 02-07-2012 00:00:00 15.24444 C 86.4826 % 13 C
302 03-07-2012 00:00:00 18.02153 C 76.9132 % 13.91 C
303 04-07-2012 00:00:00 19.87465 C 76.5000 % 15.62 C
304 05-07-2012 00:00:00 19.09722 C 91.7153 % 17.72 C
305 06-07-2012 00:00:00 19.21042 C 82.2708 % 16.11 C
306 07-07-2012 00:00:00 19.57743 C 72.4514 % 14.49 C
307 08-07-2012 00:00:00 17.84097 C 81.3542 % 14.6 C
308 09-07-2012 00:00:00 18.63611 C 72.1944 % 13.53 C
309 10-07-2012 00:00:00 19.1441 C 76.7604 % 14.97 C
310 11-07-2012 00:00:00 16.03394 C 79.6861 % 12.53 C
311 12-07-2012 00:00:00 14.8191 C 77.8715 % 11 C
312 13-07-2012 00:00:00 15.50417 C 89.5694 % 13.8 C
313 14-07-2012 00:00:00 15.27708 C 87.8125 % 13.27 C
314 15-07-2012 00:00:00 14.52014 C 86.8542 % 12.36 C
315 16-07-2012 00:00:00 15.02292 C 79.1840 % 11.45 C
316 17-07-2012 00:00:00 17.55035 C 76.7431 % 13.42 C
317 18-07-2012 00:00:00 19.89649 C 72.5088 % 14.81 C
318 19-07-2012 00:00:00 18.18194 C 70.2743 % 12.68 C
319 20-07-2012 00:00:00 14.85872 C 85.6406 % 12.48 C
320 21-07-2012 00:00:00 15.04167 C 80.6493 % 11.74 C
321 22-07-2012 00:00:00 14.62049 C 74.5139 % 10.15 C
322 23-07-2012 00:00:00 17.15069 C 68.0972 % 11.22 C
323 24-07-2012 00:00:00 19.81701 C 70.4826 % 14.3 C
324 25-07-2012 00:00:00 22.11408 C 72.7218 % 16.99 C
325 26-07-2012 00:00:00 23.10764 C 73.2326 % 18.05 C
Sensor: Nr:Datum:Temp:Feuchte:Taupunkt:
Aussen-T/F 326 27-07-2012 00:00:00 22.2566 C 82.8021 % 19.19 C
327 28-07-2012 00:00:00 19.03507 C 92.5660 % 17.8 C
328 29-07-2012 00:00:00 17.61875 C 75.5799 % 13.26 C
329 30-07-2012 00:00:00 16.17396 C 70.1250 % 10.73 C
330 31-07-2012 00:00:00 16.33993 C 79.2778 % 12.75 C
331 01-08-2012 00:00:00 20.08194 C 75.0521 % 15.52 C
332 02-08-2012 00:00:00 20.75938 C 75.0938 % 16.19 C
333 03-08-2012 00:00:00 19.31771 C 71.6042 % 14.06 C
334 04-08-2012 00:00:00 19.1 C 71.9653 % 13.93 C
335 05-08-2012 00:00:00 19.0875 C 83.3889 % 16.21 C
336 06-08-2012 00:00:00 18.40312 C 78.4965 % 14.6 C
337 07-08-2012 00:00:00 17.15556 C 73.1701 % 12.31 C
338 08-08-2012 00:00:00 16.59132 C 79.3229 % 13 C
339 09-08-2012 00:00:00 18.49479 C 77.0868 % 14.41 C
340 10-08-2012 00:00:00 17.33299 C 71.4028 % 12.11 C
341 11-08-2012 00:00:00 16.29444 C 73.2604 % 11.5 C
342 12-08-2012 00:00:00 17.40486 C 68.6181 % 11.58 C
343 13-08-2012 00:00:00 18.22326 C 73.1944 % 13.35 C
344 14-08-2012 00:00:00 19.78993 C 79.0521 % 16.05 C
345 15-08-2012 00:00:00 22.31354 C 70.9549 % 16.79 C
346 16-08-2012 00:00:00 21.27535 C 67.3125 % 14.97 C
347 17-08-2012 00:00:00 20.12986 C 70.1146 % 14.51 C
348 18-08-2012 00:00:00 23.0066 C 67.4271 % 16.65 C
349 19-08-2012 00:00:00 24.67083 C 69.9722 % 18.82 C
350 20-08-2012 00:00:00 23.43229 C 80.3090 % 19.84 C
Sensor: Nr:Datum:Temp:Feuchte:Taupunkt:
Aussen-T/F 351 21-08-2012 00:00:00 22.6875 C 81.6771 % 19.39 C
352 22-08-2012 00:00:00 20.95729 C 64.6042 % 14.04 C
353 23-08-2012 00:00:00 17.78194 C 65.1285 % 11.15 C
354 24-08-2012 00:00:00 18.62842 C 81.4105 % 15.38 C
355 25-08-2012 00:00:00 18.46493 C 78.6458 % 14.69 C
356 26-08-2012 00:00:00 16.26667 C 78.3021 % 12.49 C
357 27-08-2012 00:00:00 16.32049 C 79.0486 % 12.68 C
358 28-08-2012 00:00:00 18.03507 C 74.6076 % 13.46 C
359 29-08-2012 00:00:00 20.02396 C 77.5486 % 15.98 C
360 30-08-2012 00:00:00 17.48889 C 81.0208 % 14.2 C
361 31-08-2012 00:00:00 13.93646 C 84.9132 % 11.44 C
362 01-09-2012 00:00:00 14.49236 C 76.3785 % 10.39 C
363 02-09-2012 00:00:00 13.96285 C 82.2604 % 10.99 C
364 03-09-2012 00:00:00 16.22222 C 79.7535 % 12.72 C
365 04-09-2012 00:00:00 16.86098 C 82.0105 % 13.77 C
366 05-09-2012 00:00:00 16.4125 C 79.7500 % 12.91 C
367 06-09-2012 00:00:00 14.63604 C 70.9187 % 9.42 C
368 07-09-2012 00:00:00 14.4309 C 73.8368 % 9.83 C
369 08-09-2012 00:00:00 16.83403 C 70.1076 % 11.36 C
370 09-09-2012 00:00:00 18.54722 C 68.1563 % 12.57 C
371 10-09-2012 00:00:00 19.67847 C 67.2465 % 13.44 C
372 11-09-2012 00:00:00 17.74028 C 83.6910 % 14.95 C
373 12-09-2012 00:00:00 11.13646 C 93.3750 % 10.11 C
374 13-09-2012 00:00:00 10.78611 C 90.3368 % 9.27 C
375 14-09-2012 00:00:00 13.01424 C 83.7639 % 10.33 C
Sensor: Nr:Datum:Temp:Feuchte:Taupunkt:
Aussen-T/F 376 15-09-2012 00:00:00 13.44514 C 88.4410 % 11.57 C
377 16-09-2012 00:00:00 13.24236 C 85.5903 % 10.88 C
378 17-09-2012 00:00:00 15.15729 C 83.0208 % 12.3 C
379 18-09-2012 00:00:00 14.10868 C 84.2188 % 11.49 C
380 19-09-2012 00:00:00 11.7684 C 70.2292 % 6.53 C
381 20-09-2012 00:00:00 9.9566 C 72.9271 % 5.33 C
382 21-09-2012 00:00:00 10.62118 C 79.5069 % 7.23 C
383 22-09-2012 00:00:00 11.53611 C 80.2917 % 8.26 C
384 23-09-2012 00:00:00 11.58819 C 78.6007 % 8 C
385 24-09-2012 00:00:00 14.89201 C 84.5486 % 12.31 C
386 25-09-2012 00:00:00 12.86597 C 88.1563 % 10.96 C
387 26-09-2012 00:00:00 12.27917 C 95.0382 % 11.51 C
388 27-09-2012 00:00:00 12.68611 C 88.7257 % 10.88 C
389 28-09-2012 00:00:00 12.56701 C 85.9757 % 10.29 C
390 29-09-2012 00:00:00 11.68819 C 84.0382 % 9.08 C
391 30-09-2012 00:00:00 9.30035 C 89.3681 % 7.64 C
392 01-10-2012 00:00:00 9.46319 C 85.2118 % 7.11 C
393 02-10-2012 00:00:00 12.25764 C 84.6736 % 9.75 C
394 03-10-2012 00:00:00 14.55312 C 82.0139 % 11.52 C
395 04-10-2012 00:00:00 12.89722 C 83.2569 % 10.13 C
396 05-10-2012 00:00:00 13.57986 C 85.1285 % 11.13 C
397 06-10-2012 00:00:00 14.99065 C 84.0244 % 12.32 C
398 07-10-2012 00:00:00 10.63669 C 85.8058 % 8.36 C
399 08-10-2012 00:00:00 8.1958 C 91.4790 % 6.89 C
400 09-10-2012 00:00:00 10.60348 C 82.4776 % 7.75 C
Sensor: Nr:Datum:Temp:Feuchte:Taupunkt:
Aussen-T/F 401 10-10-2012 00:00:00 6.21146 C 91.4826 % 4.93 C
402 11-10-2012 00:00:00 6.67361 C 92.2431 % 5.51 C
403 12-10-2012 00:00:00 10.79653 C 89.9479 % 9.22 C
404 13-10-2012 00:00:00 9.08472 C 85.8854 % 6.85 C
405 14-10-2012 00:00:00 8.15833 C 90.5868 % 6.71 C
406 15-10-2012 00:00:00 7.43264 C 92.8646 % 6.36 C
407 16-10-2012 00:00:00 7.85556 C 89.7188 % 6.27 C
408 17-10-2012 00:00:00 10.85972 C 90.2361 % 9.33 C
409 18-10-2012 00:00:00 14.37569 C 85.3924 % 11.96 C
410 19-10-2012 00:00:00 14.37187 C 89.1111 % 12.6 C
411 20-10-2012 00:00:00 13.74722 C 92.9722 % 12.63 C
412 21-10-2012 00:00:00 13.32917 C 93.7014 % 12.34 C
413 22-10-2012 00:00:00 11.79062 C 93.9931 % 10.86 C
414 23-10-2012 00:00:00 11.38403 C 87.8194 % 9.44 C
415 24-10-2012 00:00:00 9.71528 C 91.8819 % 8.46 C
416 25-10-2012 00:00:00 9.9441 C 92.9271 % 8.85 C
417 26-10-2012 00:00:00 6.73542 C 93.3472 % 5.74 C
418 27-10-2012 00:00:00 2.98993 C 78.3160 % -0.41 C
419 28-10-2012 00:00:00 0.51181 C 90.1007 % -0.92 C
420 29-10-2012 00:00:00 0.69306 C 92.2292 % -0.42 C
421 30-10-2012 00:00:00 6.0566 C 90.8507 % 4.68 C
422 31-10-2012 00:00:00 5.97118 C 91.2778 % 4.66 C
423 01-11-2012 00:00:00 7.64965 C 85.8819 % 5.44 C
424 02-11-2012 00:00:00 7.75417 C 81.4132 % 4.78 C
425 03-11-2012 00:00:00 7.38542 C 94.0104 % 6.49 C
Sensor: Nr:Datum:Temp:Feuchte:Taupunkt:
Aussen-T/F 426 04-11-2012 00:00:00 7.74028 C 92.3472 % 6.58 C
427 05-11-2012 00:00:00 8.00382 C 84.4444 % 5.55 C
428 06-11-2012 00:00:00 6.03264 C 87.7708 % 4.16 C
429 07-11-2012 00:00:00 8.52535 C 86.8021 % 6.46 C
430 08-11-2012 00:00:00 8.82222 C 80.7188 % 5.7 C
431 09-11-2012 00:00:00 8.19861 C 83.9444 % 5.65 C
432 10-11-2012 00:00:00 8.89201 C 93.0243 % 7.83 C
433 11-11-2012 00:00:00 8.24097 C 92.3333 % 7.07 C
434 12-11-2012 00:00:00 5.70868 C 88.6701 % 3.99 C
435 13-11-2012 00:00:00 3.26076 C 94.2639 % 2.43 C
436 14-11-2012 00:00:00 2.60312 C 94.3438 % 1.79 C
437 15-11-2012 00:00:00 4.53958 C 88.2361 % 2.77 C
438 16-11-2012 00:00:00 3.22222 C 87.5313 % 1.36 C
439 17-11-2012 00:00:00 4.33472 C 93.4931 % 3.38 C
440 18-11-2012 00:00:00 7.54896 C 95.9792 % 6.95 C
441 19-11-2012 00:00:00 7.68403 C 95.0035 % 6.94 C
442 20-11-2012 00:00:00 5.27188 C 93.6215 % 4.33 C
443 21-11-2012 00:00:00 4.38681 C 91.7778 % 3.17 C
444 22-11-2012 00:00:00 5.51111 C 94.8819 % 4.76 C
445 23-11-2012 00:00:00 6.88472 C 93.0660 % 5.84 C
446 24-11-2012 00:00:00 9.16042 C 89.4167 % 7.51 C
447 25-11-2012 00:00:00 10.6066 C 72.8889 % 5.95 C
448 26-11-2012 00:00:00 6.01493 C 95.3368 % 5.33 C
449 27-11-2012 00:00:00 7.67986 C 89.1875 % 6.02 C
450 28-11-2012 00:00:00 5.5184 C 91.1563 % 4.19 C
Sensor: Nr:Datum:Temp:Feuchte:Taupunkt:
Aussen-T/F 451 29-11-2012 00:00:00 4.01319 C 86.8021 % 2.02 C
452 30-11-2012 00:00:00 1.44375 C 93.9375 % 0.58 C
453 01-12-2012 00:00:00 -0.39861 C 93.9271 % -1.25 C
454 02-12-2012 00:00:00 2.39375 C 89.5035 % 0.85 C
455 03-12-2012 00:00:00 2.27222 C 89.5486 % 0.74 C
456 04-12-2012 00:00:00 3.75312 C 89.4653 % 2.18 C
457 05-12-2012 00:00:00 2.86667 C 90.6389 % 1.49 C
458 06-12-2012 00:00:00 0.5625 C 84.7813 % -1.7 C
459 07-12-2012 00:00:00 -1.00382 C 91.2500 % -2.25 C
460 08-12-2012 00:00:00 -4.66111 C 93.4826 % -5.55 C
461 09-12-2012 00:00:00 0.22326 C 90.9479 % -1.08 C
462 10-12-2012 00:00:00 2.70764 C 86.9965 % 0.77 C
463 11-12-2012 00:00:00 -0.72396 C 86.9514 % -2.62 C
464 12-12-2012 00:00:00 -3.40937 C 85.1563 % -5.54 C
465 13-12-2012 00:00:00 -3.53646 C 88.4896 % -5.16 C
466 14-12-2012 00:00:00 2.76076 C 92.6389 % 1.69 C
467 15-12-2012 00:00:00 6.97153 C 92.2500 % 5.8 C
468 16-12-2012 00:00:00 6.60868 C 91.0278 % 5.25 C
469 17-12-2012 00:00:00 6.04792 C 93.6910 % 5.11 C
470 18-12-2012 00:00:00 5.04583 C 93.1146 % 4.03 C
471 19-12-2012 00:00:00 3.47361 C 96.2708 % 2.94 C
472 20-12-2012 00:00:00 1.32396 C 93.7708 % 0.43 C
473 21-12-2012 00:00:00 3.19236 C 97.7708 % 2.87 C
474 22-12-2012 00:00:00 6.1691 C 95.2361 % 5.47 C
475 23-12-2012 00:00:00 11.85 C 90.7014 % 10.38 C
Sensor: Nr:Datum:Temp:Feuchte:Taupunkt:
Aussen-T/F 476 24-12-2012 00:00:00 11.08715 C 83.9306 % 8.48 C
477 25-12-2012 00:00:00 9.61181 C 81.7431 % 6.65 C
478 26-12-2012 00:00:00 8.15278 C 84.2465 % 5.66 C
479 27-12-2012 00:00:00 7.84757 C 87.0868 % 5.84 C
480 28-12-2012 00:00:00 6.19479 C 93.6806 % 5.25 C
481 29-12-2012 00:00:00 8.19931 C 92.4514 % 7.05 C
482 30-12-2012 00:00:00 8.44618 C 76.8021 % 4.62 C
483 31-12-2012 00:00:00 8.92569 C 76.6319 % 5.05 C
484 01-01-2013 00:00:00 6.59132 C 85.2465 % 4.3 C
485 02-01-2013 00:00:00 4.69861 C 86.2326 % 2.6 C
486 03-01-2013 00:00:00 7.62951 C 90.5069 % 6.18 C
487 04-01-2013 00:00:00 9.87292 C 91.9063 % 8.62 C
488 05-01-2013 00:00:00 7.8816 C 90.6528 % 6.45 C
489 06-01-2013 00:00:00 8.15069 C 89.3438 % 6.51 C
490 07-01-2013 00:00:00 7.30764 C 88.5938 % 5.55 C
491 08-01-2013 00:00:00 6.15417 C 86.4549 % 4.07 C
492 09-01-2013 00:00:00 4.72465 C 87.9271 % 2.9 C
493 10-01-2013 00:00:00 4.44028 C 90.6840 % 3.05 C
494 11-01-2013 00:00:00 1.09201 C 80.8958 % -1.81 C
495 12-01-2013 00:00:00 -2.64514 C 86.8611 % -4.53 C
496 13-01-2013 00:00:00 -3.28368 C 83.3715 % -5.69 C
497 14-01-2013 00:00:00 -4.44028 C 89.7431 % -5.87 C
498 15-01-2013 00:00:00 -2.1941 C 89.2222 % -3.72 C
499 16-01-2013 00:00:00 -2.65521 C 90.0208 % -4.06 C
500 17-01-2013 00:00:00 -2.48542 C 88.3472 % -4.14 C
Sensor: Nr:Datum:Temp:Feuchte:Taupunkt:
Aussen-T/F 501 18-01-2013 00:00:00 -1.70729 C 86.0417 % -3.73 C
502 19-01-2013 00:00:00 -2.39375 C 81.1181 % -5.18 C
503 20-01-2013 00:00:00 -3.06146 C 87.3229 % -4.87 C
504 21-01-2013 00:00:00 -0.75938 C 92.5590 % -1.81 C
505 22-01-2013 00:00:00 -1.20382 C 91.8194 % -2.36 C
506 23-01-2013 00:00:00 -1.0566 C 91.6736 % -2.24 C
507 24-01-2013 00:00:00 -2.40833 C 86.2639 % -4.38 C
508 25-01-2013 00:00:00 -2.18368 C 84.2292 % -4.48 C
509 26-01-2013 00:00:00 -1.99549 C 84.4306 % -4.26 C
510 27-01-2013 00:00:00 2.22882 C 88.1528 % 0.48 C
511 28-01-2013 00:00:00 3.96389 C 87.7361 % 2.12 C
512 29-01-2013 00:00:00 9.00868 C 87.2743 % 7.01 C
513 30-01-2013 00:00:00 11.32361 C 82.5660 % 8.47 C
514 31-01-2013 00:00:00 7.765 C 75.5864 % 3.73 C
515 01-02-2013 00:00:00 6.26378 C 91.9921 % 5.06 C
516 02-02-2013 00:00:00 3.24097 C 87.7743 % 1.41 C
517 03-02-2013 00:00:00 3.41458 C 84.2292 % 1.01 C
518 04-02-2013 00:00:00 5.84792 C 89.4167 % 4.24 C
519 05-02-2013 00:00:00 4.44583 C 78.9896 % 1.13 C
520 06-02-2013 00:00:00 1.58819 C 91.4306 % 0.35 C
521 07-02-2013 00:00:00 1.88576 C 90.5625 % 0.51 C
522 08-02-2013 00:00:00 0.56424 C 91.6042 % -0.64 C
523 09-02-2013 00:00:00 -0.7941 C 88.5694 % -2.44 C
524 10-02-2013 00:00:00 -1.98681 C 82.7569 % -4.52 C
525 11-02-2013 00:00:00 -0.9316 C 70.8750 % -5.54 C
Sensor: Nr:Datum:Temp:Feuchte:Taupunkt:
Aussen-T/F 526 12-02-2013 00:00:00 -0.84618 C 72.2569 % -5.2 C
527 13-02-2013 00:00:00 -0.98125 C 73.6458 % -5.08 C
528 14-02-2013 00:00:00 -2.40382 C 83.6806 % -4.78 C
529 15-02-2013 00:00:00 0.91806 C 93.3993 % -0.02 C
530 16-02-2013 00:00:00 2.92847 C 95.7014 % 2.31 C
531 17-02-2013 00:00:00 2.97465 C 92.8229 % 1.93 C
532 18-02-2013 00:00:00 0.52847 C 89.7049 % -0.96 C
533 19-02-2013 00:00:00 0.79306 C 91.9375 % -0.36 C
534 20-02-2013 00:00:00 0.4316 C 79.5799 % -2.68 C
535 21-02-2013 00:00:00 -1.21979 C 76.7188 % -4.77 C
536 22-02-2013 00:00:00 -2.3066 C 72.8819 % -6.5 C
537 23-02-2013 00:00:00 -2.80139 C 85.8924 % -4.83 C
538 24-02-2013 00:00:00 -0.43958 C 90.7604 % -1.76 C
539 25-02-2013 00:00:00 0.88785 C 95.9375 % 0.32 C
540 26-02-2013 00:00:00 2.31215 C 94.4792 % 1.52 C
541 27-02-2013 00:00:00 1.69271 C 89.6667 % 0.18 C
542 28-02-2013 00:00:00 2.41771 C 88.3368 % 0.69 C
543 01-03-2013 00:00:00 2.75278 C 82.7014 % 0.11 C
544 02-03-2013 00:00:00 2.60208 C 75.2674 % -1.32 C
545 03-03-2013 00:00:00 1.90104 C 84.2535 % -0.47 C
546 04-03-2013 00:00:00 1.8934 C 82.4444 % -0.77 C
547 05-03-2013 00:00:00 2.56979 C 83.8611 % 0.12 C
548 06-03-2013 00:00:00 5.45035 C 78.0139 % 1.93 C
549 07-03-2013 00:00:00 8.96146 C 79.3646 % 5.59 C
550 08-03-2013 00:00:00 10.92049 C 83.9063 % 8.31 C
Sensor: Nr:Datum:Temp:Feuchte:Taupunkt:
Aussen-T/F 551 09-03-2013 00:00:00 10.42118 C 84.5660 % 7.94 C
552 10-03-2013 00:00:00 3.88611 C 90.5799 % 2.49 C
553 11-03-2013 00:00:00 -0.5191 C 89.0764 % -2.09 C
554 12-03-2013 00:00:00 -2.72153 C 90.2674 % -4.09 C
555 13-03-2013 00:00:00 -2.95907 C 81.1566 % -5.73 C
556 14-03-2013 00:00:00 -1.88944 C 86.0493 % -3.91 C
557 15-03-2013 00:00:00 -2.50139 C 79.4063 % -5.57 C
558 16-03-2013 00:00:00 2.40938 C 66.0729 % -3.26 C
559 17-03-2013 00:00:00 3.22014 C 86.2431 % 1.15 C
560 18-03-2013 00:00:00 4.14479 C 82.4410 % 1.43 C
561 19-03-2013 00:00:00 4.10313 C 82.7500 % 1.44 C
562 20-03-2013 00:00:00 3.59201 C 90.7639 % 2.23 C
563 21-03-2013 00:00:00 1.33993 C 86.7153 % -0.62 C
564 22-03-2013 00:00:00 1.7441 C 78.1840 % -1.64 C
565 23-03-2013 00:00:00 1.46875 C 67.2951 % -3.92 C
566 24-03-2013 00:00:00 0.48854 C 50.8924 % -8.48 C
567 25-03-2013 00:00:00 0.18681 C 56.3854 % -7.45 C
568 26-03-2013 00:00:00 0.3309 C 54.9167 % -7.65 C
569 27-03-2013 00:00:00 1.19896 C 57.4340 % -6.26 C
570 28-03-2013 00:00:00 2.07639 C 68.6563 % -3.07 C
571 29-03-2013 00:00:00 0.53715 C 86.8750 % -1.39 C
572 30-03-2013 00:00:00 1.50903 C 75.2361 % -2.39 C
573 31-03-2013 00:00:00 1.17246 C 77.9094 % -2.24 C
574 01-04-2013 00:00:00 1.44201 C 69.0382 % -3.6 C
575 02-04-2013 00:00:00 2.12708 C 62.2396 % -4.33 C
Sensor: Nr:Datum:Temp:Feuchte:Taupunkt:
Aussen-T/F 576 03-04-2013 00:00:00 1.88194 C 70.0521 % -2.99 C
577 04-04-2013 00:00:00 3.97465 C 65.6701 % -1.85 C
578 05-04-2013 00:00:00 2.45382 C 75.3299 % -1.46 C
579 06-04-2013 00:00:00 3.55104 C 83.4028 % 1.01 C
580 07-04-2013 00:00:00 3.40382 C 71.6181 % -1.23 C
581 08-04-2013 00:00:00 4.46979 C 71.6076 % -0.2 C
582 09-04-2013 00:00:00 5.89479 C 88.8681 % 4.2 C
583 10-04-2013 00:00:00 8.34653 C 86.5139 % 6.23 C
584 11-04-2013 00:00:00 12.25972 C 76.2674 % 8.21 C
585 12-04-2013 00:00:00 10.42708 C 83.9722 % 7.84 C
586 13-04-2013 00:00:00 11.30243 C 70.4826 % 6.14 C
587 14-04-2013 00:00:00 15.49271 C 69.5903 % 9.96 C
588 15-04-2013 00:00:00 15.52118 C 73.4931 % 10.81 C
589 16-04-2013 00:00:00 16.01215 C 73.3854 % 11.26 C
590 17-04-2013 00:00:00 17.14167 C 64.9028 % 10.49 C
591 18-04-2013 00:00:00 15.57153 C 62.1528 % 8.36 C
592 19-04-2013 00:00:00 11.46389 C 56.8333 % 3.21 C
593 20-04-2013 00:00:00 10.16944 C 61.6736 % 3.15 C
594 21-04-2013 00:00:00 10.71389 C 59.7014 % 3.21 C
595 22-04-2013 00:00:00 12.26562 C 60.0069 % 4.74 C
596 23-04-2013 00:00:00 12.48924 C 62.8681 % 5.62 C
597 24-04-2013 00:00:00 14.60278 C 69.3472 % 9.06 C
598 25-04-2013 00:00:00 17.28958 C 64.4965 % 10.54 C
599 26-04-2013 00:00:00 12.59896 C 84.6528 % 10.09 C
600 27-04-2013 00:00:00 6.70972 C 88.6111 % 4.97 C
Sensor: Nr:Datum:Temp:Feuchte:Taupunkt:
Aussen-T/F 601 28-04-2013 00:00:00 7.57118 C 83.3438 % 4.93 C
602 29-04-2013 00:00:00 11.20139 C 67.0556 % 5.32 C
603 30-04-2013 00:00:00 9.40104 C 78.5139 % 5.86 C
604 01-05-2013 00:00:00 12.25 C 80.0972 % 8.92 C
605 02-05-2013 00:00:00 15.26458 C 71.7535 % 10.2 C
606 03-05-2013 00:00:00 14.28056 C 76.8472 % 10.28 C
607 04-05-2013 00:00:00 15.30521 C 68.4132 % 9.53 C
608 05-05-2013 00:00:00 14.71458 C 67.0556 % 8.67 C
609 06-05-2013 00:00:00 15.4691 C 70.1458 % 10.06 C
610 07-05-2013 00:00:00 14.47708 C 86.2465 % 12.21 C
611 08-05-2013 00:00:00 15.69062 C 80.7188 % 12.39 C
612 09-05-2013 00:00:00 16.1566 C 79.2674 % 12.57 C
613 10-05-2013 00:00:00 13.28785 C 70.3924 % 8.02 C
614 11-05-2013 00:00:00 12.72431 C 79.9549 % 9.36 C
615 12-05-2013 00:00:00 9.44583 C 87.2049 % 7.43 C
616 13-05-2013 00:00:00 11.19688 C 87.3056 % 9.17 C
617 14-05-2013 00:00:00 12.63125 C 81.3576 % 9.53 C
618 15-05-2013 00:00:00 13.05694 C 84.4688 % 10.5 C
619 16-05-2013 00:00:00 13.25521 C 93.0174 % 12.15 C
620 17-05-2013 00:00:00 10.33125 C 94.0278 % 9.41 C
621 18-05-2013 00:00:00 13.12118 C 83.2813 % 10.35 C
622 19-05-2013 00:00:00 13.29792 C 84.1910 % 10.69 C
623 20-05-2013 00:00:00 10.92014 C 91.6771 % 9.62 C
624 21-05-2013 00:00:00 12.35104 C 85.9826 % 10.08 C
625 22-05-2013 00:00:00 9.34444 C 87.3438 % 7.35 C
Sensor: Nr:Datum:Temp:Feuchte:Taupunkt:
Aussen-T/F 626 23-05-2013 00:00:00 7.90764 C 85.7535 % 5.67 C
627 24-05-2013 00:00:00 7.60521 C 78.8576 % 4.18 C
628 25-05-2013 00:00:00 8.39687 C 79.6493 % 5.09 C
629 26-05-2013 00:00:00 8.03611 C 93.6493 % 7.08 C
630 27-05-2013 00:00:00 12.39201 C 76.8368 % 8.45 C
631 28-05-2013 00:00:00 13.87465 C 75.0903 % 9.54 C
632 29-05-2013 00:00:00 10.21285 C 92.6875 % 9.08 C
633 30-05-2013 00:00:00 11.70208 C 80.4896 % 8.46 C
634 31-05-2013 00:00:00 13.19792 C 90.3090 % 11.65 C
635 01-06-2013 00:00:00 12.09549 C 87.9410 % 10.16 C
636 02-06-2013 00:00:00 13.08125 C 66.3472 % 6.96 C
637 03-06-2013 00:00:00 12.7375 C 64.3750 % 6.19 C
638 04-06-2013 00:00:00 13.85833 C 72.3507 % 8.97 C
639 05-06-2013 00:00:00 16.28889 C 78.3125 % 12.51 C
640 06-06-2013 00:00:00 18.00868 C 68.3264 % 12.09 C
641 07-06-2013 00:00:00 18.14826 C 71.4236 % 12.9 C
642 08-06-2013 00:00:00 18.53125 C 79.0556 % 14.83 C
643 09-06-2013 00:00:00 15.18819 C 89.5868 % 13.49 C
644 10-06-2013 00:00:00 12.77396 C 94.5868 % 11.93 C
645 11-06-2013 00:00:00 15.40451 C 84.7708 % 12.86 C
646 12-06-2013 00:00:00 17.48576 C 83.4236 % 14.65 C
647 13-06-2013 00:00:00 18.45313 C 85.0625 % 15.9 C
648 14-06-2013 00:00:00 14.47917 C 78.2500 % 10.74 C
649 15-06-2013 00:00:00 15.22674 C 77.9653 % 11.41 C
650 16-06-2013 00:00:00 16.60104 C 70.9306 % 11.31 C
Sensor: Nr:Datum:Temp:Feuchte:Taupunkt:
Aussen-T/F 651 17-06-2013 00:00:00 20.99236 C 73.9583 % 16.17 C
652 18-06-2013 00:00:00 23.88576 C 78.5104 % 19.92 C
653 19-06-2013 00:00:00 24.9691 C 80.3924 % 21.36 C
654 20-06-2013 00:00:00 21.63299 C 83.6493 % 18.74 C
655 21-06-2013 00:00:00 17.72778 C 79.6563 % 14.17 C
656 22-06-2013 00:00:00 18.08576 C 74.9688 % 13.58 C
657 23-06-2013 00:00:00 16.03403 C 77.5938 % 12.12 C
658 24-06-2013 00:00:00 14.4184 C 80.7326 % 11.15 C
659 25-06-2013 00:00:00 13.24861 C 81.2049 % 10.1 C
660 26-06-2013 00:00:00 12.21597 C 78.8819 % 8.66 C
661 27-06-2013 00:00:00 12.77257 C 85.6111 % 10.42 C
662 28-06-2013 00:00:00 12.51979 C 89.5764 % 10.85 C
663 29-06-2013 00:00:00 15.31319 C 83.5000 % 12.54 C
664 30-06-2013 00:00:00 14.36458 C 77.9931 % 10.58 C
665 01-07-2013 00:00:00 18.46319 C 74.8715 % 13.93 C
666 02-07-2013 00:00:00 18.88542 C 76.4132 % 14.65 C
667 03-07-2013 00:00:00 17.18993 C 93.0868 % 16.06 C
668 04-07-2013 00:00:00 18.03542 C 87.4410 % 15.92 C
669 05-07-2013 00:00:00 19.17361 C 80.8785 % 15.81 C
670 06-07-2013 00:00:00 19.30833 C 81.3438 % 16.03 C
671 07-07-2013 00:00:00 20.55243 C 74.5069 % 15.86 C
672 08-07-2013 00:00:00 20.53924 C 71.9444 % 15.31 C
673 09-07-2013 00:00:00 20.80694 C 73.6597 % 15.93 C
674 10-07-2013 00:00:00 20.12292 C 72.3368 % 14.99 C
675 11-07-2013 00:00:00 17.10417 C 69.4097 % 11.47 C
Sensor: Nr:Datum:Temp:Feuchte:Taupunkt:
Aussen-T/F 676 12-07-2013 00:00:00 16.90868 C 73.6806 % 12.18 C
677 13-07-2013 00:00:00 17.26424 C 74.3160 % 12.66 C
678 14-07-2013 00:00:00 18.30139 C 74.2847 % 13.65 C
679 15-07-2013 00:00:00 18.85486 C 75.3333 % 14.4 C
680 16-07-2013 00:00:00 20.18438 C 72.0590 % 14.99 C
681 17-07-2013 00:00:00 20.29896 C 74.5729 % 15.63 C
682 18-07-2013 00:00:00 21.84757 C 69.7014 % 16.06 C
683 19-07-2013 00:00:00 22.12674 C 67.1042 % 15.74 C
684 20-07-2013 00:00:00 21.31076 C 69.5417 % 15.52 C
685 21-07-2013 00:00:00 22.30521 C 69.0000 % 16.34 C
686 22-07-2013 00:00:00 22.41562 C 70.3958 % 16.76 C
687 23-07-2013 00:00:00 21.37396 C 86.5069 % 19.03 C
688 24-07-2013 00:00:00 21.35972 C 80.1076 % 17.79 C
689 25-07-2013 00:00:00 20.88542 C 86.3472 % 18.52 C
690 26-07-2013 00:00:00 21.25729 C 95.1007 % 20.44 C
691 27-07-2013 00:00:00 23.54236 C 84.8646 % 20.85 C
692 28-07-2013 00:00:00 21.69965 C 82.3889 % 18.57 C
693 29-07-2013 00:00:00 19.41007 C 88.3993 % 17.44 C
694 30-07-2013 00:00:00 18.99028 C 79.0139 % 15.27 C
695 31-07-2013 00:00:00 20.83715 C 75.4653 % 16.34 C
696 01-08-2013 00:00:00 21.89653 C 75.0764 % 17.28 C
697 02-08-2013 00:00:00 23.37049 C 72.4132 % 18.13 C
698 03-08-2013 00:00:00 21.1934 C 85.6146 % 18.69 C
699 04-08-2013 00:00:00 19.79549 C 78.0382 % 15.86 C
700 05-08-2013 00:00:00 20.42639 C 78.9618 % 16.65 C
Sensor: Nr:Datum:Temp:Feuchte:Taupunkt:
Aussen-T/F 701 06-08-2013 00:00:00 19.98646 C 87.9132 % 17.92 C
702 07-08-2013 00:00:00 18.91562 C 91.5833 % 17.51 C
703 08-08-2013 00:00:00 16.92118 C 86.3229 % 14.62 C
704 09-08-2013 00:00:00 16.41597 C 86.1181 % 14.09 C
705 10-08-2013 00:00:00 18.10764 C 74.2986 % 13.46 C
706 11-08-2013 00:00:00 16.80278 C 69.1771 % 11.13 C
707 12-08-2013 00:00:00 15.88229 C 83.6007 % 13.11 C
708 13-08-2013 00:00:00 15.61319 C 81.7326 % 12.5 C
709 14-08-2013 00:00:00 14.4559 C 81.5660 % 11.34 C
710 15-08-2013 00:00:00 16.30035 C 77.9028 % 12.44 C
711 16-08-2013 00:00:00 17.96319 C 75.3750 % 13.55 C
712 17-08-2013 00:00:00 20.47965 C 70.5158 % 14.94 C
713 18-08-2013 00:00:00 19.29614 C 82.4596 % 16.23 C
714 19-08-2013 00:00:00 17.75764 C 80.2465 % 14.31 C
715 20-08-2013 00:00:00 14.96458 C 79.6111 % 11.47 C
716 21-08-2013 00:00:00 15.16285 C 81.7743 % 12.07 C
717 22-08-2013 00:00:00 16.33576 C 83.6111 % 13.56 C
718 23-08-2013 00:00:00 18.61667 C 76.7708 % 14.46 C
719 24-08-2013 00:00:00 16.10208 C 89.7396 % 14.42 C
720 25-08-2013 00:00:00 16.06806 C 95.2708 % 15.31 C
721 26-08-2013 00:00:00 15.16806 C 96.5451 % 14.62 C
722 27-08-2013 00:00:00 15.88472 C 89.9792 % 14.24 C
723 28-08-2013 00:00:00 15.65312 C 87.5035 % 13.59 C
724 29-08-2013 00:00:00 14.74062 C 90.2153 % 13.15 C
725 30-08-2013 00:00:00 15.73924 C 87.8472 % 13.73 C
Sensor: Nr:Datum:Temp:Feuchte:Taupunkt:
Aussen-T/F 726 31-08-2013 00:00:00 16.33229 C 86.2986 % 14.04 C
727 01-09-2013 00:00:00 14.50938 C 73.5035 % 9.83 C
728 02-09-2013 00:00:00 17.48924 C 69.9375 % 11.95 C
729 03-09-2013 00:00:00 18.08299 C 80.6319 % 14.7 C
730 04-09-2013 00:00:00 17.74583 C 85.1701 % 15.22 C
731 05-09-2013 00:00:00 18.47349 C 84.5181 % 15.82 C
732 06-09-2013 00:00:00 22.68615 C 74.2769 % 17.87 C
733 07-09-2013 00:00:00 18.36354 C 91.5208 % 16.96 C
734 08-09-2013 00:00:00 14.78542 C 93.9097 % 13.81 C
735 09-09-2013 00:00:00 14.16944 C 86.9965 % 12.04 C
736 10-09-2013 00:00:00 13.35073 C 82.4891 % 10.43 C
737 11-09-2013 00:00:00 13.00912 C 87.8066 % 11.04 C
738 12-09-2013 00:00:00 13.53472 C 92.7535 % 12.39 C
739 13-09-2013 00:00:00 14.67363 C 88.3553 % 12.77 C
740 14-09-2013 00:00:00 15.8191 C 93.1007 % 14.71 C
741 15-09-2013 00:00:00 14.41667 C 87.2500 % 12.33 C
742 16-09-2013 00:00:00 13.23333 C 81.3229 % 10.11 C
743 17-09-2013 00:00:00 10.58958 C 82.5833 % 7.75 C
744 18-09-2013 00:00:00 12.57951 C 92.8750 % 11.46 C
745 19-09-2013 00:00:00 11.89444 C 86.6076 % 9.73 C
746 20-09-2013 00:00:00 13.91806 C 85.7778 % 11.58 C
747 21-09-2013 00:00:00 12.20868 C 91.0000 % 10.78 C
748 22-09-2013 00:00:00 13.3788 C 90.7668 % 11.9 C
749 23-09-2013 00:00:00 15.46493 C 89.1076 % 13.68 C
750 24-09-2013 00:00:00 12.34792 C 94.6979 % 11.52 C
Sensor: Nr:Datum:Temp:Feuchte:Taupunkt:
Aussen-T/F 751 25-09-2013 00:00:00 14.08646 C 94.5347 % 13.22 C
752 26-09-2013 00:00:00 14.58924 C 91.1389 % 13.16 C
753 27-09-2013 00:00:00 11.25312 C 89.0660 % 9.52 C
754 28-09-2013 00:00:00 10.575 C 88.4286 % 8.74 C
755 29-09-2013 00:00:00 11.89028 C 85.1667 % 9.48 C
756 30-09-2013 00:00:00 9.80833 C 87.1910 % 7.78 C
757 01-10-2013 00:00:00 11.38264 C 80.5903 % 8.17 C
758 02-10-2013 00:00:00 9.01493 C 82.1111 % 6.13 C
759 03-10-2013 00:00:00 8.84479 C 80.9549 % 5.76 C
760 04-10-2013 00:00:00 11.33993 C 91.6215 % 10.03 C
761 05-10-2013 00:00:00 12.69583 C 97.5486 % 12.32 C
762 06-10-2013 00:00:00 13.60313 C 92.6910 % 12.44 C
763 07-10-2013 00:00:00 13.21667 C 94.6806 % 12.38 C
764 08-10-2013 00:00:00 13.44791 C 95.3505 % 12.72 C
765 09-10-2013 00:00:00 13.86667 C 91.5938 % 12.52 C
766 10-10-2013 00:00:00 8.4625 C 94.6285 % 7.65 C
767 11-10-2013 00:00:00 6.86042 C 97.1285 % 6.44 C
768 12-10-2013 00:00:00 6.31215 C 95.1910 % 5.6 C
769 13-10-2013 00:00:00 7.69167 C 90.0208 % 6.16 C
770 14-10-2013 00:00:00 9.89091 C 92.2182 % 8.69 C
771 15-10-2013 00:00:00 10.43275 C 94.2113 % 9.54 C
772 16-10-2013 00:00:00 10.04523 C 95.8799 % 9.42 C
773 17-10-2013 00:00:00 12.70972 C 88.6771 % 10.89 C
774 18-10-2013 00:00:00 11.80868 C 95.7083 % 11.15 C
775 19-10-2013 00:00:00 11.72702 C 95.4877 % 11.03 C
Sensor: Nr:Datum:Temp:Feuchte:Taupunkt:
Aussen-T/F 776 20-10-2013 00:00:00 15.28507 C 93.8021 % 14.29 C
777 21-10-2013 00:00:00 15.075 C 89.9861 % 13.45 C
778 22-10-2013 00:00:00 15.7614 C 91.7404 % 14.42 C
779 23-10-2013 00:00:00 15.81476 C 92.6790 % 14.63 C
780 24-10-2013 00:00:00 13.67431 C 95.5069 % 12.97 C
781 25-10-2013 00:00:00 13.01701 C 96.8958 % 12.54 C
782 26-10-2013 00:00:00 16.41144 C 95.1808 % 15.64 C
783 27-10-2013 00:00:00 14.94896 C 83.9028 % 12.25 C
784 28-10-2013 00:00:00 15.40962 C 78.1385 % 11.62 C
785 29-10-2013 00:00:00 11.12569 C 77.4901 % 7.34 C
786 30-10-2013 00:00:00 7.81825 C 86.6702 % 5.74 C
787 31-10-2013 00:00:00 5.27708 C 94.3854 % 4.45 C
788 01-11-2013 00:00:00 9.4316 C 89.5208 % 7.8 C
789 02-11-2013 00:00:00 12.79889 C 90.4354 % 11.27 C
790 03-11-2013 00:00:00 9.93611 C 83.6701 % 7.31 C
791 04-11-2013 00:00:00 9.80526 C 87.0912 % 7.76 C
792 05-11-2013 00:00:00 6.72153 C 87.5556 % 4.81 C
793 06-11-2013 00:00:00 10.70215 C 88.7348 % 8.92 C
794 07-11-2013 00:00:00 15.04132 C 84.5243 % 12.46 C
795 08-11-2013 00:00:00 11.92093 C 93.0372 % 10.83 C
796 09-11-2013 00:00:00 9.48785 C 80.9931 % 6.39 C
797 10-11-2013 00:00:00 6.68715 C 90.9653 % 5.32 C
798 11-11-2013 00:00:00 4.00764 C 96.3542 % 3.48 C
799 12-11-2013 00:00:00 4.41146 C 93.7951 % 3.5 C
800 13-11-2013 00:00:00 6.28491 C 93.5579 % 5.32 C
Sensor: Nr:Datum:Temp:Feuchte:Taupunkt:
Aussen-T/F 801 14-11-2013 00:00:00 3.2816 C 95.0833 % 2.57 C
802 15-11-2013 00:00:00 4.99201 C 90.5035 % 3.57 C
803 16-11-2013 00:00:00 3.05 C 91.8507 % 1.86 C
804 17-11-2013 00:00:00 3.2184 C 94.6285 % 2.44 C
805 18-11-2013 00:00:00 5.38287 C 94.0916 % 4.51 C
806 19-11-2013 00:00:00 6.22 C 91.5647 % 4.95 C
807 20-11-2013 00:00:00 3.96643 C 91.7483 % 2.75 C
808 21-11-2013 00:00:00 4.05603 C 89.4310 % 2.48 C
809 22-11-2013 00:00:00 4.42 C 86.5545 % 2.38 C
810 23-11-2013 00:00:00 7.03092 C 87.0000 % 5.02 C
811 24-11-2013 00:00:00 5.71435 C 88.4739 % 3.96 C
812 25-11-2013 00:00:00 2.65439 C 93.3216 % 1.69 C
813 26-11-2013 00:00:00 0.53125 C 94.5590 % -0.24 C
814 27-11-2013 00:00:00 0.63854 C 92.5035 % -0.43 C
815 28-11-2013 00:00:00 3.45709 C 94.3022 % 2.63 C
816 29-11-2013 00:00:00 5.6434 C 91.5833 % 4.38 C
817 30-11-2013 00:00:00 4.32604 C 93.7951 % 3.42 C
818 01-12-2013 00:00:00 5.01254 C 94.7178 % 4.24 C
819 02-12-2013 00:00:00 4.76458 C 93.0486 % 3.74 C
820 03-12-2013 00:00:00 -0.45729 C 97.1806 % -0.85 C
821 04-12-2013 00:00:00 3.27917 C 91.8924 % 2.09 C
822 05-12-2013 00:00:00 3.93475 C 87.9291 % 2.12 C
823 06-12-2013 00:00:00 3.76181 C 74.9583 % -0.26 C
824 07-12-2013 00:00:00 4.38715 C 85.8194 % 2.23 C
825 08-12-2013 00:00:00 6.92188 C 87.3785 % 4.97 C
Sensor: Nr:Datum:Temp:Feuchte:Taupunkt:
Aussen-T/F 826 09-12-2013 00:00:00 6.42222 C 84.1806 % 3.95 C
827 10-12-2013 00:00:00 3.24896 C 95.9236 % 2.66 C
828 11-12-2013 00:00:00 3.72465 C 96.5903 % 3.23 C
829 12-12-2013 00:00:00 4.08993 C 92.2118 % 2.94 C
830 13-12-2013 00:00:00 2.65694 C 90.5313 % 1.27 C
831 14-12-2013 00:00:00 3.58986 C 92.6923 % 2.52 C
832 15-12-2013 00:00:00 4.99688 C 85.9340 % 2.84 C
833 16-12-2013 00:00:00 1.49676 C 94.6511 % 0.73 C
834 17-12-2013 00:00:00 1.25451 C 95.3924 % 0.6 C
835 18-12-2013 00:00:00 4.19965 C 94.2153 % 3.35 C
836 19-12-2013 00:00:00 8.13715 C 88.2813 % 6.32 C
837 20-12-2013 00:00:00 4.38403 C 92.2708 % 3.24 C
838 21-12-2013 00:00:00 4.81354 C 81.8229 % 1.98 C
839 22-12-2013 00:00:00 8.81493 C 82.7222 % 6.04 C
840 23-12-2013 00:00:00 8.42341 C 85.6230 % 6.16 C
841 24-12-2013 00:00:00 11.57579 C 73.6140 % 7.03 C
842 25-12-2013 00:00:00 8.41944 C 92.4444 % 7.27 C
843 26-12-2013 00:00:00 6.06579 C 94.8195 % 5.3 C
844 27-12-2013 00:00:00 6.6549 C 85.1608 % 4.34 C
845 28-12-2013 00:00:00 9.14444 C 90.1181 % 7.61 C
846 29-12-2013 00:00:00 4.76463 C 93.9695 % 3.88 C
847 30-12-2013 00:00:00 4.17107 C 89.7934 % 2.65 C
848 31-12-2013 00:00:00 2.91045 C 89.5522 % 1.37 C
849 01-01-2014 00:00:00 6.46912 C 86.4737 % 4.38 C
850 02-01-2014 00:00:00 8.31947 C 88.5649 % 6.54 C
Sensor: Nr:Datum:Temp:Feuchte:Taupunkt:
Aussen-T/F 851 03-01-2014 00:00:00 8.74861 C 86.5347 % 6.63 C
852 04-01-2014 00:00:00 7.47049 C 88.5833 % 5.71 C
853 05-01-2014 00:00:00 6.13111 C 91.4622 % 4.85 C
854 06-01-2014 00:00:00 8.33819 C 89.1736 % 6.66 C
855 07-01-2014 00:00:00 10.72882 C 85.7708 % 8.45 C
856 08-01-2014 00:00:00 10.3965 C 86.9027 % 8.31 C
857 09-01-2014 00:00:00 9.27876 C 85.9961 % 7.06 C
858 10-01-2014 00:00:00 5.59896 C 86.9757 % 3.61 C
859 11-01-2014 00:00:00 3.80382 C 93.2049 % 2.81 C
860 12-01-2014 00:00:00 0.34545 C 97.0618 % -0.06 C
861 13-01-2014 00:00:00 3.73194 C 95.9965 % 3.15 C
862 14-01-2014 00:00:00 5.06036 C 94.4536 % 4.25 C
863 15-01-2014 00:00:00 4.1934 C 91.9444 % 3 C
864 16-01-2014 00:00:00 6.5375 C 93.3160 % 5.54 C
865 17-01-2014 00:00:00 6.75 C 92.8021 % 5.67 C
866 18-01-2014 00:00:00 4.5321 C 90.4686 % 3.11 C
867 19-01-2014 00:00:00 4.621 C 92.0569 % 3.44 C
868 20-01-2014 00:00:00 4.32836 C 94.6567 % 3.55 C
869 21-01-2014 00:00:00 3.49792 C 93.6632 % 2.58 C
870 22-01-2014 00:00:00 3.18571 C 95.3022 % 2.51 C
871 23-01-2014 00:00:00 3.72927 C 92.3049 % 2.6 C
872 24-01-2014 00:00:00 3.90268 C 93.5670 % 2.96 C
873 25-01-2014 00:00:00 2.8165 C 94.8000 % 2.07 C
874 26-01-2014 00:00:00 5.11851 C 83.3630 % 2.54 C
875 27-01-2014 00:00:00 4.4199 C 87.2094 % 2.48 C
Sensor: Nr:Datum:Temp:Feuchte:Taupunkt:
Aussen-T/F 876 28-01-2014 00:00:00 2.36869 C 88.8889 % 0.73 C
877 29-01-2014 00:00:00 1.54036 C 85.8253 % -0.57 C
878 30-01-2014 00:00:00 1.98611 C 84.2049 % -0.39 C
879 31-01-2014 00:00:00 1.03819 C 91.0799 % -0.25 C
880 01-02-2014 00:00:00 4.63819 C 89.8646 % 3.12 C
881 02-02-2014 00:00:00 4.14306 C 90.0729 % 2.66 C
882 03-02-2014 00:00:00 1.00938 C 95.5486 % 0.38 C
883 04-02-2014 00:00:00 4.28785 C 89.7083 % 2.75 C
884 05-02-2014 00:00:00 4.74236 C 89.7049 % 3.2 C
885 06-02-2014 00:00:00 8.42431 C 76.6181 % 4.56 C
886 07-02-2014 00:00:00 8.79132 C 78.4410 % 5.25 C
887 08-02-2014 00:00:00 6.5309 C 83.7222 % 3.98 C
888 09-02-2014 00:00:00 5.34375 C 80.9306 % 2.34 C
889 10-02-2014 00:00:00 3.38819 C 87.2500 % 1.48 C
890 11-02-2014 00:00:00 5.41354 C 82.3819 % 2.66 C
891 12-02-2014 00:00:00 5.44028 C 81.1319 % 2.47 C
892 13-02-2014 00:00:00 5.71771 C 88.4479 % 3.96 C
893 14-02-2014 00:00:00 5.64722 C 85.6979 % 3.44 C
894 15-02-2014 00:00:00 9.70669 C 79.3415 % 6.31 C
895 16-02-2014 00:00:00 7.36493 C 80.5694 % 4.25 C
896 17-02-2014 00:00:00 3.59861 C 91.7118 % 2.38 C
897 18-02-2014 00:00:00 3.38715 C 94.0590 % 2.52 C
898 19-02-2014 00:00:00 7.825 C 84.9722 % 5.46 C
899 20-02-2014 00:00:00 8.68958 C 82.6215 % 5.9 C
900 21-02-2014 00:00:00 7.64062 C 84.5451 % 5.21 C
Sensor: Nr:Datum:Temp:Feuchte:Taupunkt:
Aussen-T/F 901 22-02-2014 00:00:00 4.99861 C 87.1563 % 3.05 C
902 23-02-2014 00:00:00 5.94204 C 83.6694 % 3.39 C
903 24-02-2014 00:00:00 5.86389 C 80.9444 % 2.85 C
904 25-02-2014 00:00:00 6.68681 C 82.1910 % 3.87 C
905 26-02-2014 00:00:00 8.58182 C 81.5382 % 5.61 C
906 27-02-2014 00:00:00 5.86275 C 84.1961 % 3.41 C
907 28-02-2014 00:00:00 6.2146 C 87.8248 % 4.35 C
908 01-03-2014 00:00:00 5.44375 C 88.4410 % 3.69 C
909 02-03-2014 00:00:00 3.55069 C 87.5208 % 1.68 C
910 03-03-2014 00:00:00 5.27743 C 86.6458 % 3.24 C
911 04-03-2014 00:00:00 4.21701 C 86.7118 % 2.2 C
912 05-03-2014 00:00:00 4.68235 C 86.5059 % 2.63 C
913 06-03-2014 00:00:00 3.87951 C 89.4306 % 2.3 C
914 07-03-2014 00:00:00 6.23037 C 80.7383 % 3.17 C
915 08-03-2014 00:00:00 7.3847 C 80.0427 % 4.18 C
916 09-03-2014 00:00:00 7.27263 C 76.4772 % 3.42 C
917 10-03-2014 00:00:00 7.44444 C 75.5035 % 3.41 C
918 11-03-2014 00:00:00 8.4184 C 78.6424 % 4.93 C
919 12-03-2014 00:00:00 9.07812 C 74.1354 % 4.72 C
920 13-03-2014 00:00:00 8.16007 C 73.3681 % 3.69 C
921 14-03-2014 00:00:00 7.91944 C 76.8993 % 4.12 C
922 15-03-2014 00:00:00 8.97326 C 77.3021 % 5.22 C
923 16-03-2014 00:00:00 11.50486 C 77.2500 % 7.67 C
924 17-03-2014 00:00:00 10.27882 C 81.5486 % 7.27 C
925 18-03-2014 00:00:00 9.4066 C 83.2882 % 6.72 C
Sensor: Nr:Datum:Temp:Feuchte:Taupunkt:
Aussen-T/F 926 19-03-2014 00:00:00 12.2875 C 70.5521 % 7.1 C
927 20-03-2014 00:00:00 12.49333 C 67.2772 % 6.6 C
928 21-03-2014 00:00:00 13.1375 C 66.5069 % 7.05 C
929 22-03-2014 00:00:00 8.65208 C 83.0799 % 5.95 C
930 23-03-2014 00:00:00 6.03507 C 81.4861 % 3.11 C
931 24-03-2014 00:00:00 5.42632 C 80.7404 % 2.39 C
932 25-03-2014 00:00:00 4.1625 C 82.4271 % 1.44 C
933 26-03-2014 00:00:00 4.56076 C 78.8125 % 1.21 C
934 27-03-2014 00:00:00 8.14604 C 73.6475 % 3.73 C
935 28-03-2014 00:00:00 10.60972 C 66.4167 % 4.62 C
936 29-03-2014 00:00:00 10.34963 C 70.5809 % 5.24 C
937 30-03-2014 00:00:00 9.15619 C 76.1429 % 5.18 C
938 31-03-2014 00:00:00 12.96562 C 65.8924 % 6.75 C
939 01-04-2014 00:00:00 13.77519 C 67.7366 % 7.92 C
940 02-04-2014 00:00:00 13.90458 C 68.9754 % 8.31 C
941 03-04-2014 00:00:00 12.54324 C 77.5811 % 8.74 C
942 04-04-2014 00:00:00 14.95971 C 74.9173 % 10.55 C
943 05-04-2014 00:00:00 13.00531 C 86.2612 % 10.77 C
944 06-04-2014 00:00:00 11.67782 C 83.0879 % 8.91 C
945 07-04-2014 00:00:00 15.95041 C 75.4713 % 11.62 C
946 08-04-2014 00:00:00 12.18521 C 67.1585 % 6.28 C
947 09-04-2014 00:00:00 9.27426 C 75.9154 % 5.25 C
948 10-04-2014 00:00:00 10.31543 C 77.0864 % 6.48 C
949 11-04-2014 00:00:00 14.56849 C 72.5000 % 9.69 C
950 12-04-2014 00:00:00 12.65368 C 70.8982 % 7.52 C
Sensor: Nr:Datum:Temp:Feuchte:Taupunkt:
Aussen-T/F 951 13-04-2014 00:00:00 11.60669 C 71.0599 % 6.55 C
952 14-04-2014 00:00:00 9.7593 C 71.2491 % 4.81 C
953 15-04-2014 00:00:00 7.10171 C 73.7991 % 2.75 C
954 16-04-2014 00:00:00 12.97192 C 49.4521 % 2.65 C
955 17-04-2014 00:00:00 9.85313 C 63.3021 % 3.22 C
956 18-04-2014 00:00:00 10.72049 C 64.8750 % 4.39 C
957 19-04-2014 00:00:00 10.82049 C 71.8993 % 5.96 C
958 20-04-2014 00:00:00 14.91825 C 70.5509 % 9.62 C
959 21-04-2014 00:00:00 12.49479 C 77.9896 % 8.77 C
960 22-04-2014 00:00:00 12.82847 C 85.6076 % 10.48 C
961 23-04-2014 00:00:00 13.43958 C 81.1771 % 10.28 C
962 24-04-2014 00:00:00 15.42535 C 79.0035 % 11.8 C
963 25-04-2014 00:00:00 16.71562 C 74.1319 % 12.09 C
964 26-04-2014 00:00:00 15.2 C 74.7604 % 10.75 C
965 27-04-2014 00:00:00 13.07674 C 81.7986 % 10.04 C
966 28-04-2014 00:00:00 12.80243 C 79.8715 % 9.42 C
967 29-04-2014 00:00:00 13.43403 C 90.3056 % 11.88 C
968 30-04-2014 00:00:00 14.53507 C 84.7500 % 12 C
969 01-05-2014 00:00:00 14.73611 C 81.3611 % 11.58 C
970 02-05-2014 00:00:00 11.71319 C 86.6736 % 9.57 C
971 03-05-2014 00:00:00 10.92708 C 61.0069 % 3.71 C
972 04-05-2014 00:00:00 9.61042 C 68.0590 % 4.02 C
973 05-05-2014 00:00:00 12.60069 C 67.5521 % 6.76 C
974 06-05-2014 00:00:00 13.72083 C 74.2778 % 9.23 C
975 07-05-2014 00:00:00 13.05764 C 84.9931 % 10.6 C
Sensor: Nr:Datum:Temp:Feuchte:Taupunkt:
Aussen-T/F 976 08-05-2014 00:00:00 12.32847 C 84.6146 % 9.81 C
977 09-05-2014 00:00:00 15.33403 C 71.0833 % 10.13 C
978 10-05-2014 00:00:00 12.40903 C 81.6528 % 9.36 C
979 11-05-2014 00:00:00 11.45764 C 80.1667 % 8.16 C
980 12-05-2014 00:00:00 11.1941 C 74.9167 % 6.92 C
981 13-05-2014 00:00:00 10.30729 C 85.3368 % 7.96 C
982 14-05-2014 00:00:00 10.63542 C 76.9514 % 6.77 C
983 15-05-2014 00:00:00 10.00382 C 80.4757 % 6.8 C
984 16-05-2014 00:00:00 13.25347 C 73.1250 % 8.55 C
985 17-05-2014 00:00:00 14.22292 C 71.7500 % 9.2 C
986 18-05-2014 00:00:00 15.4809 C 74.3021 % 10.93 C
987 19-05-2014 00:00:00 17.57188 C 70.6944 % 12.19 C
988 20-05-2014 00:00:00 19.46562 C 67.3681 % 13.26 C
989 21-05-2014 00:00:00 20.29792 C 68.1181 % 14.23 C
990 22-05-2014 00:00:00 20.21806 C 65.7465 % 13.61 C
991 23-05-2014 00:00:00 15.52639 C 89.6667 % 13.84 C
992 24-05-2014 00:00:00 14.72993 C 81.1514 % 11.53 C
993 25-05-2014 00:00:00 15.25071 C 74.9149 % 10.83 C
994 26-05-2014 00:00:00 16.8625 C 80.3056 % 13.45 C
995 27-05-2014 00:00:00 15.19431 C 94.7346 % 14.36 C
996 28-05-2014 00:00:00 14.58118 C 88.4000 % 12.69 C
997 29-05-2014 00:00:00 13.44653 C 87.1042 % 11.35 C
998 30-05-2014 00:00:00 13.2316 C 70.4167 % 7.97 C
999 31-05-2014 00:00:00 13.40382 C 74.2639 % 8.92 C
1000 01-06-2014 00:00:00 15.49273 C 69.6545 % 9.98 C
Sensor: Nr:Datum:Temp:Feuchte:Taupunkt:
Aussen-T/F 1001 02-06-2014 00:00:00 15.88943 C 67.9715 % 9.99 C
1002 03-06-2014 00:00:00 15.78662 C 74.8627 % 11.34 C
1003 04-06-2014 00:00:00 14.95388 C 86.4155 % 12.71 C
1004 05-06-2014 00:00:00 14.55765 C 67.7687 % 8.68 C
1005 06-06-2014 00:00:00 17.20312 C 67.7778 % 11.2 C
1006 07-06-2014 00:00:00 20.77257 C 72.3750 % 15.62 C
1007 08-06-2014 00:00:00 24.09514 C 70.7431 % 18.45 C
1008 09-06-2014 00:00:00 25.74583 C 69.9583 % 19.85 C
1009 10-06-2014 00:00:00 23.66632 C 70.6389 % 18.01 C
1010 11-06-2014 00:00:00 20.10803 C 81.3175 % 16.81 C
1011 12-06-2014 00:00:00 19.97431 C 66.4583 % 13.54 C
1012 13-06-2014 00:00:00 18.37014 C 68.1597 % 12.4 C
1013 14-06-2014 00:00:00 17.27465 C 65.5104 % 10.76 C
1014 15-06-2014 00:00:00 16.86944 C 67.1875 % 10.75 C
1015 16-06-2014 00:00:00 15.61944 C 74.7396 % 11.15 C
1016 17-06-2014 00:00:00 17.41354 C 66.8819 % 11.2 C
1017 18-06-2014 00:00:00 17.76319 C 71.4931 % 12.54 C
1018 19-06-2014 00:00:00 15.70791 C 75.5252 % 11.4 C
1019 20-06-2014 00:00:00 15.64143 C 71.1667 % 10.44 C
1020 21-06-2014 00:00:00 16.62118 C 65.5903 % 10.15 C
1021 22-06-2014 00:00:00 16.62782 C 66.3415 % 10.33 C
1022 23-06-2014 00:00:00 17.14792 C 65.1910 % 10.56 C
1023 24-06-2014 00:00:00 16.64978 C 71.6277 % 11.5 C
1024 25-06-2014 00:00:00 17.29096 C 56.5426 % 8.58 C
1025 26-06-2014 00:00:00 16.18958 C 64.0764 % 9.4 C
Sensor: Nr:Datum:Temp:Feuchte:Taupunkt:
Aussen-T/F 1026 27-06-2014 00:00:00 17.54167 C 67.2604 % 11.41 C
1027 28-06-2014 00:00:00 16.28043 C 87.3950 % 14.18 C
1028 29-06-2014 00:00:00 14.67192 C 93.3251 % 13.61 C
1029 30-06-2014 00:00:00 16.05247 C 75.2167 % 11.67 C
1030 01-07-2014 00:00:00 15.65035 C 70.2917 % 10.26 C
1031 02-07-2014 00:00:00 16.86146 C 65.5313 % 10.37 C
1032 03-07-2014 00:00:00 19.78889 C 59.6493 % 11.72 C
1033 04-07-2014 00:00:00 20.36076 C 67.5382 % 14.16 C
1034 05-07-2014 00:00:00 20.4 C 77.3439 % 16.3 C
1035 06-07-2014 00:00:00 23.48509 C 69.7818 % 17.65 C
1036 07-07-2014 00:00:00 19.86367 C 64.8202 % 13.05 C
1037 08-07-2014 00:00:00 15.57633 C 89.8898 % 13.92 C
1038 09-07-2014 00:00:00 12.97083 C 95.1667 % 12.22 C
1039 10-07-2014 00:00:00 17.68292 C 90.2000 % 16.06 C
1040 11-07-2014 00:00:00 18.42369 C 88.6466 % 16.51 C
1041 12-07-2014 00:00:00 18.68363 C 88.1018 % 16.67 C
1042 13-07-2014 00:00:00 19.06941 C 85.5922 % 16.6 C
1043 14-07-2014 00:00:00 19.60206 C 79.5021 % 15.96 C
1044 15-07-2014 00:00:00 21.3216 C 70.6901 % 15.78 C
1045 16-07-2014 00:00:00 21.88732 C 74.8829 % 17.23 C
1046 17-07-2014 00:00:00 23.77903 C 70.2742 % 18.04 C
1047 18-07-2014 00:00:00 24.87935 C 65.5097 % 17.97 C
1048 19-07-2014 00:00:00 27.76989 C 58.4086 % 18.86 C
1049 20-07-2014 00:00:00 22.68715 C 80.6840 % 19.19 C
1050 21-07-2014 00:00:00 20.29965 C 91.0660 % 18.79 C
Sensor: Nr:Datum:Temp:Feuchte:Taupunkt:
Aussen-T/F 1051 22-07-2014 00:00:00 23.6856 C 82.0494 % 20.44 C
1052 23-07-2014 00:00:00 23.11788 C 73.8869 % 18.2 C
1053 24-07-2014 00:00:00 20.63922 C 73.5020 % 15.74 C
1054 25-07-2014 00:00:00 21.8193 C 72.9825 % 16.76 C
1055 26-07-2014 00:00:00 21.92 C 74.3097 % 17.14 C
1056 27-07-2014 00:00:00 19.66694 C 83.9339 % 16.88 C
1057 28-07-2014 00:00:00 22.3284 C 78.8580 % 18.48 C
1058 29-07-2014 00:00:00 19.88194 C 95.8125 % 19.19 C
1059 30-07-2014 00:00:00 19.93194 C 85.4097 % 17.41 C
1060 31-07-2014 00:00:00 20.20645 C 77.0896 % 16.06 C
1061 01-08-2014 00:00:00 20.08438 C 81.7153 % 16.86 C
1062 02-08-2014 00:00:00 20.10868 C 84.8264 % 17.48 C
1063 03-08-2014 00:00:00 21.3566 C 81.2743 % 18.02 C
1064 04-08-2014 00:00:00 19.00347 C 86.5799 % 16.71 C
1065 05-08-2014 00:00:00 18.77049 C 82.0208 % 15.64 C
1066 06-08-2014 00:00:00 17.59618 C 84.4201 % 14.94 C
1067 07-08-2014 00:00:00 18.9934 C 85.7986 % 16.56 C
1068 08-08-2014 00:00:00 18.87604 C 89.5625 % 17.12 C
1069 09-08-2014 00:00:00 20.16771 C 80.6076 % 16.73 C
1070 10-08-2014 00:00:00 19.0125 C 90.0208 % 17.34 C
1071 11-08-2014 00:00:00 17.0066 C 81.0000 % 13.72 C
1072 12-08-2014 00:00:00 17.62431 C 72.1944 % 12.56 C
1073 13-08-2014 00:00:00 15.97674 C 89.6528 % 14.28 C
1074 14-08-2014 00:00:00 16.15426 C 84.3298 % 13.51 C
1075 15-08-2014 00:00:00 14.48638 C 92.1720 % 13.23 C
Sensor: Nr:Datum:Temp:Feuchte:Taupunkt:
Aussen-T/F 1076 16-08-2014 00:00:00 15.13439 C 89.3930 % 13.4 C
1077 17-08-2014 00:00:00 16.14062 C 77.5243 % 12.21 C
1078 18-08-2014 00:00:00 16.30417 C 74.5313 % 11.77 C
1079 19-08-2014 00:00:00 13.79653 C 83.4410 % 11.04 C
1080 20-08-2014 00:00:00 12.68681 C 83.0799 % 9.89 C
1081 21-08-2014 00:00:00 12.84653 C 82.9965 % 10.03 C
1082 22-08-2014 00:00:00 14.04062 C 78.5000 % 10.36 C
1083 23-08-2014 00:00:00 14.26875 C 83.3194 % 11.48 C
1084 24-08-2014 00:00:00 11.58993 C 93.2465 % 10.54 C
1085 25-08-2014 00:00:00 13.23854 C 93.7743 % 12.26 C
1086 26-08-2014 00:00:00 14.79479 C 96.8681 % 14.3 C
1087 27-08-2014 00:00:00 15.38741 C 91.3237 % 13.98 C
1088 28-08-2014 00:00:00 15.84062 C 93.0556 % 14.72 C
1089 29-08-2014 00:00:00 18.05278 C 88.6979 % 16.16 C
1090 30-08-2014 00:00:00 16.23299 C 90.9965 % 14.76 C
1091 31-08-2014 00:00:00 14.70069 C 92.8125 % 13.55 C
1092 01-09-2014 00:00:00 14.60556 C 91.4896 % 13.24 C
1093 02-09-2014 00:00:00 14.6191 C 90.6771 % 13.11 C
1094 03-09-2014 00:00:00 15.03299 C 89.9549 % 13.4 C
1095 04-09-2014 00:00:00 16.74028 C 89.6910 % 15.04 C
1096 05-09-2014 00:00:00 18.15903 C 91.3819 % 16.73 C
1097 06-09-2014 00:00:00 17.4559 C 92.7604 % 16.27 C
1098 07-09-2014 00:00:00 18.08889 C 88.1264 % 16.09 C
1099 08-09-2014 00:00:00 17.83403 C 84.0833 % 15.11 C
1100 09-09-2014 00:00:00 15.64965 C 81.4410 % 12.48 C
Sensor: Nr:Datum:Temp:Feuchte:Taupunkt:
Aussen-T/F 1101 10-09-2014 00:00:00 14.27882 C 83.4132 % 11.51 C
1102 11-09-2014 00:00:00 14.96111 C 83.0903 % 12.12 C
1103 12-09-2014 00:00:00 14.12153 C 84.7257 % 11.59 C
1104 13-09-2014 00:00:00 16.12118 C 88.7743 % 14.27 C
1105 14-09-2014 00:00:00 16.65196 C 88.0641 % 14.67 C
1106 15-09-2014 00:00:00 16.079 C 91.5516 % 14.7 C
1107 16-09-2014 00:00:00 16.93264 C 90.1458 % 15.31 C
1108 17-09-2014 00:00:00 16.05139 C 92.2118 % 14.79 C
1109 18-09-2014 00:00:00 17.4875 C 95.6215 % 16.78 C
1110 19-09-2014 00:00:00 18.38993 C 95.2708 % 17.62 C
1111 20-09-2014 00:00:00 17.14931 C 96.4583 % 16.58 C
1112 21-09-2014 00:00:00 15.46146 C 95.3090 % 14.71 C
1113 22-09-2014 00:00:00 12.53194 C 86.3194 % 10.31 C
1114 23-09-2014 00:00:00 9.91146 C 90.8993 % 8.5 C
1115 24-09-2014 00:00:00 11.10451 C 89.8056 % 9.5 C
1116 25-09-2014 00:00:00 13.67917 C 85.6806 % 11.33 C
1117 26-09-2014 00:00:00 14.24896 C 88.9653 % 12.46 C
1118 27-09-2014 00:00:00 15.59965 C 91.2743 % 14.18 C
1119 28-09-2014 00:00:00 14.22743 C 95.0660 % 13.45 C
1120 29-09-2014 00:00:00 15.41493 C 94.8472 % 14.59 C
1121 30-09-2014 00:00:00 16.83438 C 93.1875 % 15.73 C
1122 01-10-2014 00:00:00 15.87778 C 94.6389 % 15.02 C
1123 02-10-2014 00:00:00 14.35799 C 95.7326 % 13.69 C
1124 03-10-2014 00:00:00 13.73785 C 95.4063 % 13.02 C
1125 04-10-2014 00:00:00 12.86979 C 93.2014 % 11.8 C
Sensor: Nr:Datum:Temp:Feuchte:Taupunkt:
Aussen-T/F 1126 05-10-2014 00:00:00 12.94097 C 94.0799 % 12.01 C
1127 06-10-2014 00:00:00 14.3 C 90.3750 % 12.75 C
1128 07-10-2014 00:00:00 13.71806 C 92.2986 % 12.49 C
1129 08-10-2014 00:00:00 13.3 C 97.6069 % 12.93 C
1130 09-10-2014 00:00:00 15.17173 C 97.6859 % 14.81 C
1131 10-10-2014 00:00:00 14.20902 C 96.4000 % 13.64 C
1132 11-10-2014 00:00:00 14.77847 C 96.0347 % 14.15 C
1133 12-10-2014 00:00:00 12.52744 C 95.6029 % 11.84 C
1134 13-10-2014 00:00:00 14.72014 C 96.7569 % 14.21 C
1135 14-10-2014 00:00:00 12.54495 C 95.1847 % 11.8 C
1136 15-10-2014 00:00:00 11.65639 C 95.3910 % 10.94 C
1137 16-10-2014 00:00:00 14.02682 C 94.9818 % 13.24 C
1138 17-10-2014 00:00:00 14.05977 C 93.7854 % 13.07 C
1139 18-10-2014 00:00:00 12.49887 C 97.7283 % 12.15 C
1140 19-10-2014 00:00:00 15.09722 C 92.7188 % 13.93 C
1141 20-10-2014 00:00:00 15.06015 C 83.9885 % 12.38 C
1142 21-10-2014 00:00:00 11.78491 C 85.1649 % 9.38 C
1143 22-10-2014 00:00:00 8.88438 C 85.2674 % 6.55 C
1144 23-10-2014 00:00:00 10.3816 C 87.9444 % 8.47 C
1145 24-10-2014 00:00:00 10.59097 C 90.2951 % 9.07 C
1146 25-10-2014 00:00:00 11.53056 C 94.5417 % 10.69 C
1147 26-10-2014 00:00:00 11.35625 C 95.5278 % 10.67 C
1148 27-10-2014 00:00:00 9.22813 C 96.0903 % 8.64 C
1149 28-10-2014 00:00:00 7.93681 C 88.3750 % 6.14 C
1150 29-10-2014 00:00:00 9.50556 C 91.5347 % 8.2 C
Sensor: Nr:Datum:Temp:Feuchte:Taupunkt:
Aussen-T/F 1151 30-10-2014 00:00:00 12.10625 C 96.8819 % 11.63 C
1152 31-10-2014 00:00:00 12.05903 C 97.0694 % 11.61 C
1153 01-11-2014 00:00:00 10.92674 C 98.2674 % 10.66 C
1154 02-11-2014 00:00:00 11.24448 C 97.2776 % 10.83 C
1155 03-11-2014 00:00:00 13.84028 C 90.1806 % 12.26 C
1156 04-11-2014 00:00:00 11.22049 C 96.5521 % 10.69 C
1157 05-11-2014 00:00:00 9.33229 C 95.2257 % 8.61 C
1158 06-11-2014 00:00:00 6.59514 C 92.6250 % 5.49 C
1159 07-11-2014 00:00:00 5.60208 C 94.8160 % 4.84 C
1160 08-11-2014 00:00:00 8.8941 C 91.4340 % 7.58 C
1161 09-11-2014 00:00:00 6.62257 C 96.8125 % 6.15 C
1162 10-11-2014 00:00:00 8.76389 C 96.3715 % 8.22 C
1163 11-11-2014 00:00:00 8.47553 C 95.0106 % 7.72 C
1164 12-11-2014 00:00:00 9.50104 C 95.2604 % 8.78 C
1165 13-11-2014 00:00:00 9.66736 C 96.6806 % 9.17 C
1166 14-11-2014 00:00:00 10.60174 C 90.0313 % 9.04 C
1167 15-11-2014 00:00:00 9.75938 C 94.5347 % 8.93 C
1168 16-11-2014 00:00:00 8.75674 C 97.4468 % 8.38 C
1169 17-11-2014 00:00:00 8.71146 C 97.5799 % 8.35 C
1170 18-11-2014 00:00:00 8.62491 C 96.7473 % 8.14 C
1171 19-11-2014 00:00:00 8.07465 C 95.9514 % 7.47 C
1172 20-11-2014 00:00:00 6.45486 C 94.4826 % 5.63 C
1173 21-11-2014 00:00:00 5.36458 C 95.0799 % 4.64 C
1174 22-11-2014 00:00:00 5.83576 C 95.7569 % 5.21 C
1175 23-11-2014 00:00:00 6.30104 C 96.9931 % 5.86 C
Sensor: Nr:Datum:Temp:Feuchte:Taupunkt:
Aussen-T/F 1176 24-11-2014 00:00:00 7.36679 C 94.6236 % 6.56 C
1177 25-11-2014 00:00:00 3.04781 C 97.7769 % 2.73 C
1178 26-11-2014 00:00:00 5.29848 C 89.8182 % 3.77 C
1179 27-11-2014 00:00:00 5.85447 C 92.9300 % 4.8 C
1180 28-11-2014 00:00:00 5.42203 C 91.8771 % 4.21 C
1181 29-11-2014 00:00:00 4.46596 C 89.4070 % 2.88 C
1182 30-11-2014 00:00:00 3.88993 C 91.8229 % 2.69 C
1183 01-12-2014 00:00:00 3.33299 C 91.1840 % 2.04 C
1184 02-12-2014 00:00:00 1.63731 C 91.3192 % 0.38 C
1185 03-12-2014 00:00:00 1.74095 C 94.0216 % 0.88 C
1186 04-12-2014 00:00:00 2.32917 C 92.6806 % 1.27 C
1187 05-12-2014 00:00:00 4.15278 C 92.7500 % 3.09 C
1188 06-12-2014 00:00:00 4.51389 C 95.0174 % 3.79 C
1189 07-12-2014 00:00:00 4.32049 C 92.1597 % 3.16 C
1190 08-12-2014 00:00:00 3.10625 C 93.1458 % 2.11 C
1191 09-12-2014 00:00:00 2.57569 C 96.3472 % 2.05 C
1192 10-12-2014 00:00:00 4.42118 C 89.8993 % 2.91 C
1193 11-12-2014 00:00:00 6.26736 C 89.8125 % 4.72 C
1194 12-12-2014 00:00:00 9.07951 C 85.8507 % 6.84 C
1195 13-12-2014 00:00:00 4.45625 C 96.4618 % 3.94 C
1196 14-12-2014 00:00:00 2.59063 C 96.5868 % 2.1 C
1197 15-12-2014 00:00:00 3.42986 C 93.8646 % 2.54 C
1198 16-12-2014 00:00:00 6.12049 C 91.8542 % 4.9 C
1199 17-12-2014 00:00:00 6.08021 C 92.4167 % 4.95 C
1200 18-12-2014 00:00:00 11.91597 C 90.3021 % 10.38 C
Sensor: Nr:Datum:Temp:Feuchte:Taupunkt:
Aussen-T/F 1201 19-12-2014 00:00:00 10.45243 C 86.8194 % 8.35 C
1202 20-12-2014 00:00:00 5.90764 C 85.4618 % 3.66 C
1203 21-12-2014 00:00:00 6.41042 C 88.0833 % 4.59 C
1204 22-12-2014 00:00:00 8.375 C 87.5139 % 6.43 C
1205 23-12-2014 00:00:00 10.04444 C 85.6222 % 7.75 C
1206 24-12-2014 00:00:00 8.3214 C 86.1158 % 6.14 C
1207 25-12-2014 00:00:00 5.2875 C 85.6027 % 3.08 C
1208 26-12-2014 00:00:00 2.31469 C 97.1259 % 1.91 C
1209 27-12-2014 00:00:00 1.46649 C 94.8796 % 0.74 C
1210 28-12-2014 00:00:00 -3.09591 C 79.8636 % -6.07 C
1211 29-12-2014 00:00:00 -0.46157 C 89.7388 % -1.94 C
1212 30-12-2014 00:00:00 2.6765 C 92.5574 % 1.59 C
1213 31-12-2014 00:00:00 2.46053 C 93.8487 % 1.57 C
1214 01-01-2015 00:00:00 1.89397 C 96.4741 % 1.39 C
1215 02-01-2015 00:00:00 3.6411 C 89.1575 % 2.03 C
1216 03-01-2015 00:00:00 1.94125 C 94.7000 % 1.18 C
1217 04-01-2015 00:00:00 2.94172 C 93.6503 % 2.02 C
1218 05-01-2015 00:00:00 -0.02447 C 95.0904 % -0.71 C
1219 06-01-2015 00:00:00 0.48846 C 92.6923 % -0.55 C
1220 07-01-2015 00:00:00 2.52604 C 92.4113 % 1.42 C
1221 08-01-2015 00:00:00 6.62222 C 92.6632 % 5.52 C
1222 09-01-2015 00:00:00 9.27879 C 85.8977 % 7.04 C
1223 10-01-2015 00:00:00 13.56872 C 83.0051 % 10.74 C
1224 11-01-2015 00:00:00 5.45068 C 76.2432 % 1.61 C
1225 12-01-2015 00:00:00 6.91962 C 83.3811 % 4.3 C
Sensor: Nr:Datum:Temp:Feuchte:Taupunkt:
Aussen-T/F 1226 13-01-2015 00:00:00 10.09231 C 75.4163 % 5.95 C
1227 14-01-2015 00:00:00 5.9911 C 84.6525 % 3.61 C
1228 15-01-2015 00:00:00 10.14352 C 76.1574 % 6.14 C
1229 16-01-2015 00:00:00 6.66424 C 88.4201 % 4.89 C
1230 17-01-2015 00:00:00 3.35174 C 91.5660 % 2.11 C
1231 18-01-2015 00:00:00 1.91111 C 84.4965 % -0.42 C
1232 19-01-2015 00:00:00 0.89028 C 89.3889 % -0.65 C
1233 20-01-2015 00:00:00 0.86285 C 90.8576 % -0.46 C
1234 21-01-2015 00:00:00 -0.0414 C 88.7123 % -1.68 C
1235 22-01-2015 00:00:00 1.45625 C 84.8438 % -0.81 C
1236 23-01-2015 00:00:00 1.33299 C 89.6736 % -0.17 C
1237 24-01-2015 00:00:00 1.04056 C 91.7189 % -0.15 C
1238 25-01-2015 00:00:00 2.19444 C 94.2396 % 1.37 C
1239 26-01-2015 00:00:00 3.05694 C 95.0069 % 2.34 C
1240 27-01-2015 00:00:00 3.85208 C 93.6806 % 2.93 C
1241 28-01-2015 00:00:00 4.1184 C 90.7604 % 2.75 C
1242 29-01-2015 00:00:00 3.03715 C 88.2431 % 1.29 C
1243 30-01-2015 00:00:00 1.92569 C 90.3715 % 0.52 C
1244 31-01-2015 00:00:00 2.07143 C 87.5437 % 0.23 C
1245 01-02-2015 00:00:00 2.04274 C 93.0565 % 1.04 C
1246 02-02-2015 00:00:00 2.35794 C 89.0635 % 0.75 C
1247 03-02-2015 00:00:00 0.88769 C 90.6462 % -0.46 C
1248 04-02-2015 00:00:00 0.04848 C 87.0379 % -1.84 C
1249 05-02-2015 00:00:00 -1.86778 C 83.7333 % -4.25 C
1250 06-02-2015 00:00:00 0.42153 C 69.7431 % -4.45 C
Sensor: Nr:Datum:Temp:Feuchte:Taupunkt:
Aussen-T/F 1251 07-02-2015 00:00:00 -0.6316 C 80.7569 % -3.52 C
1252 08-02-2015 00:00:00 3.19444 C 81.6701 % 0.37 C
1253 09-02-2015 00:00:00 4.06597 C 90.9549 % 2.73 C
1254 10-02-2015 00:00:00 4.96528 C 91.7188 % 3.73 C
1255 11-02-2015 00:00:00 3.82917 C 87.1771 % 1.9 C
1256 12-02-2015 00:00:00 2.75556 C 89.3854 % 1.19 C
1257 13-02-2015 00:00:00 2.27396 C 89.2326 % 0.69 C
1258 14-02-2015 00:00:00 3.73438 C 86.5382 % 1.7 C
1259 15-02-2015 00:00:00 1.72778 C 89.3542 % 0.17 C
1260 16-02-2015 00:00:00 1.82744 C 88.4874 % 0.13 C
1261 17-02-2015 00:00:00 3.31146 C 88.3646 % 1.58 C
1262 18-02-2015 00:00:00 4.09479 C 89.1493 % 2.47 C
1263 19-02-2015 00:00:00 0.94861 C 88.1007 % -0.79 C
1264 20-02-2015 00:00:00 6.96389 C 77.7326 % 3.35 C
1265 21-02-2015 00:00:00 5.27535 C 85.5972 % 3.06 C
1266 22-02-2015 00:00:00 3.72083 C 82.6285 % 1.05 C
1267 23-02-2015 00:00:00 3.46944 C 89.0000 % 1.83 C
1268 24-02-2015 00:00:00 4.88611 C 84.9757 % 2.58 C
1269 25-02-2015 00:00:00 4.28403 C 89.1215 % 2.65 C
1270 26-02-2015 00:00:00 6.06354 C 89.7708 % 4.51 C
1271 27-02-2015 00:00:00 5.01736 C 91.6632 % 3.78 C
1272 28-02-2015 00:00:00 2.37187 C 85.8854 % 0.26 C
1273 01-03-2015 00:00:00 7.71493 C 80.8125 % 4.63 C
1274 02-03-2015 00:00:00 6.14653 C 79.5556 % 2.88 C
1275 03-03-2015 00:00:00 5.52812 C 78.2778 % 2.05 C
Sensor: Nr:Datum:Temp:Feuchte:Taupunkt:
Aussen-T/F 1276 04-03-2015 00:00:00 4.51771 C 82.8576 % 1.86 C
1277 05-03-2015 00:00:00 5.08681 C 83.0556 % 2.45 C
1278 06-03-2015 00:00:00 4.14931 C 84.0660 % 1.71 C
1279 07-03-2015 00:00:00 4.96007 C 81.3993 % 2.05 C
1280 08-03-2015 00:00:00 6.05625 C 83.0174 % 3.4 C
1281 09-03-2015 00:00:00 7.81354 C 84.5938 % 5.38 C
1282 10-03-2015 00:00:00 5.56319 C 96.8542 % 5.1 C
1283 11-03-2015 00:00:00 4.39549 C 87.3090 % 2.48 C
1284 12-03-2015 00:00:00 3.92222 C 82.5382 % 1.23 C
1285 13-03-2015 00:00:00 4.14514 C 76.4688 % 0.39 C
1286 14-03-2015 00:00:00 4.55451 C 82.5729 % 1.85 C
1287 15-03-2015 00:00:00 4.61042 C 89.4132 % 3.02 C
1288 16-03-2015 00:00:00 4.68368 C 86.6736 % 2.66 C
1289 17-03-2015 00:00:00 7.26632 C 81.9722 % 4.4 C
1290 18-03-2015 00:00:00 9.08924 C 80.6424 % 5.94 C
1291 19-03-2015 00:00:00 7.62431 C 91.9132 % 6.4 C
1292 20-03-2015 00:00:00 8.07465 C 82.3889 % 5.26 C
1293 21-03-2015 00:00:00 5.69201 C 90.0000 % 4.18 C
1294 22-03-2015 00:00:00 5.19792 C 82.4965 % 2.47 C
1295 23-03-2015 00:00:00 3.85521 C 84.2118 % 1.44 C
1296 24-03-2015 00:00:00 6.94167 C 81.1181 % 3.93 C
1297 25-03-2015 00:00:00 7.68056 C 84.0729 % 5.17 C
1298 26-03-2015 00:00:00 7.17257 C 77.3333 % 3.48 C
1299 27-03-2015 00:00:00 7.64965 C 74.8472 % 3.48 C
1300 28-03-2015 00:00:00 8.51667 C 79.0243 % 5.09 C
Sensor: Nr:Datum:Temp:Feuchte:Taupunkt:
Aussen-T/F 1301 29-03-2015 00:00:00 11.63659 C 83.7029 % 8.98 C
1302 30-03-2015 00:00:00 8.21597 C 71.2222 % 3.32 C
1303 31-03-2015 00:00:00 10.06181 C 74.1771 % 5.68 C
1304 01-04-2015 00:00:00 6.38924 C 70.3542 % 1.4 C
1305 02-04-2015 00:00:00 6.45868 C 73.6250 % 2.1 C
1306 03-04-2015 00:00:00 5.87951 C 71.3819 % 1.11 C
1307 04-04-2015 00:00:00 6.24896 C 76.7882 % 2.49 C
1308 05-04-2015 00:00:00 5.21354 C 69.6042 % 0.12 C
1309 06-04-2015 00:00:00 5.33542 C 76.9201 % 1.62 C
1310 07-04-2015 00:00:00 5.98646 C 76.3785 % 2.16 C
1311 08-04-2015 00:00:00 8.43776 C 77.5594 % 4.75 C
1312 09-04-2015 00:00:00 11.19653 C 77.2118 % 7.36 C
1313 10-04-2015 00:00:00 13.22708 C 68.0278 % 7.46 C
1314 11-04-2015 00:00:00 12.37118 C 70.6736 % 7.2 C
1315 12-04-2015 00:00:00 11.34444 C 70.3090 % 6.14 C
1316 13-04-2015 00:00:00 11.50104 C 69.8576 % 6.2 C
1317 14-04-2015 00:00:00 13.37778 C 67.0347 % 7.39 C
1318 15-04-2015 00:00:00 16.43472 C 63.5799 % 9.51 C
1319 16-04-2015 00:00:00 15.04757 C 69.6493 % 9.55 C
1320 17-04-2015 00:00:00 11.41736 C 67.7951 % 5.69 C
1321 18-04-2015 00:00:00 8.60486 C 64.9931 % 2.41 C
1322 19-04-2015 00:00:00 9.50903 C 62.7708 % 2.78 C
1323 20-04-2015 00:00:00 12.20312 C 60.9549 % 4.9 C
1324 21-04-2015 00:00:00 13.69549 C 60.5278 % 6.21 C
1325 22-04-2015 00:00:00 10.77465 C 69.4826 % 5.42 C
Sensor: Nr:Datum:Temp:Feuchte:Taupunkt:
Aussen-T/F 1326 23-04-2015 00:00:00 10.84062 C 70.1806 % 5.63 C
1327 24-04-2015 00:00:00 13.43403 C 62.6701 % 6.46 C
1328 25-04-2015 00:00:00 12.95486 C 81.1250 % 9.8 C
1329 26-04-2015 00:00:00 15.34444 C 79.1736 % 11.76 C
1330 27-04-2015 00:00:00 10.42014 C 94.5868 % 9.59 C
1331 28-04-2015 00:00:00 9.15382 C 73.6910 % 4.71 C
1332 29-04-2015 00:00:00 8.3059 C 73.2951 % 3.82 C
1333 30-04-2015 00:00:00 9.85764 C 80.8819 % 6.73 C
1334 01-05-2015 00:00:00 8.17979 C 82.7700 % 5.43 C
1335 02-05-2015 00:00:00 9.88958 C 78.1007 % 6.26 C
1336 03-05-2015 00:00:00 13.80469 C 89.9856 % 12.19 C
1337 04-05-2015 00:00:00 16.61875 C 81.1319 % 13.37 C
1338 05-05-2015 00:00:00 18.45035 C 74.4514 % 13.83 C
1339 06-05-2015 00:00:00 13.3566 C 69.4306 % 7.89 C
1340 07-05-2015 00:00:00 13.35764 C 65.8646 % 7.12 C
1341 08-05-2015 00:00:00 14.46632 C 68.7951 % 8.81 C
1342 09-05-2015 00:00:00 15.2441 C 75.9410 % 11.03 C
1343 10-05-2015 00:00:00 14.78229 C 75.1944 % 10.44 C
1344 11-05-2015 00:00:00 17.12812 C 73.8611 % 12.43 C
1345 12-05-2015 00:00:00 18.0309 C 74.6181 % 13.46 C
1346 13-05-2015 00:00:00 14.45208 C 67.5590 % 8.53 C
1347 14-05-2015 00:00:00 14.14351 C 72.7298 % 9.33 C
1348 15-05-2015 00:00:00 15.02882 C 77.6215 % 11.15 C
1349 16-05-2015 00:00:00 12.01528 C 78.7569 % 8.45 C
1350 17-05-2015 00:00:00 14.18924 C 70.3750 % 8.88 C
Sensor: Nr:Datum:Temp:Feuchte:Taupunkt:
Aussen-T/F 1351 18-05-2015 00:00:00 15.27535 C 65.6250 % 8.88 C
1352 19-05-2015 00:00:00 13.64941 C 60.6403 % 6.19 C
1353 20-05-2015 00:00:00 11.71144 C 70.5166 % 6.54 C
1354 21-05-2015 00:00:00 11.60764 C 69.7118 % 6.27 C
1355 22-05-2015 00:00:00 15.74722 C 61.0868 % 8.27 C
1356 23-05-2015 00:00:00 15.85278 C 71.0625 % 10.62 C
1357 24-05-2015 00:00:00 17.02887 C 75.7852 % 12.73 C
1358 25-05-2015 00:00:00 13.82968 C 88.0452 % 11.89 C
1359 26-05-2015 00:00:00 11.87604 C 75.6736 % 7.72 C
1360 27-05-2015 00:00:00 11.63958 C 70.3194 % 6.43 C
1361 28-05-2015 00:00:00 14.21944 C 69.5104 % 8.73 C
1362 29-05-2015 00:00:00 13.27367 C 76.0712 % 9.15 C
1363 30-05-2015 00:00:00 12.66319 C 71.2188 % 7.59 C
1364 31-05-2015 00:00:00 14.50903 C 73.4653 % 9.83 C
1365 01-06-2015 00:00:00 14.86667 C 79.3472 % 11.33 C
1366 02-06-2015 00:00:00 16.57639 C 73.3056 % 11.78 C
1367 03-06-2015 00:00:00 17.74965 C 70.8646 % 12.4 C
1368 04-06-2015 00:00:00 18.54896 C 65.3993 % 11.94 C
1369 05-06-2015 00:00:00 22.1191 C 67.8681 % 15.91 C
1370 06-06-2015 00:00:00 19.94028 C 80.0208 % 16.39 C
1371 07-06-2015 00:00:00 18.04306 C 59.8576 % 10.13 C
1372 08-06-2015 00:00:00 16.17222 C 63.8056 % 9.32 C
1373 09-06-2015 00:00:00 14.94792 C 62.4688 % 7.85 C
1374 10-06-2015 00:00:00 17.10208 C 66.1146 % 10.73 C
1375 11-06-2015 00:00:00 19.95895 C 61.7825 % 12.41 C
Sensor: Nr:Datum:Temp:Feuchte:Taupunkt:
Aussen-T/F 1376 12-06-2015 00:00:00 19.48699 C 78.0855 % 15.57 C
1377 13-06-2015 00:00:00 18.63958 C 85.4028 % 16.14 C
1378 14-06-2015 00:00:00 19.07708 C 68.7674 % 13.21 C
1379 15-06-2015 00:00:00 17.59271 C 74.7535 % 13.06 C
1380 16-06-2015 00:00:00 15.68924 C 63.0868 % 8.69 C
1381 17-06-2015 00:00:00 15.5816 C 65.6250 % 9.18 C
1382 18-06-2015 00:00:00 17.15625 C 75.1736 % 12.73 C
1383 19-06-2015 00:00:00 12.7559 C 82.5104 % 9.86 C
1384 20-06-2015 00:00:00 13.05547 C 82.0000 % 10.06 C
1385 21-06-2015 00:00:00 15.43396 C 84.8358 % 12.9 C
1386 22-06-2015 00:00:00 13.19855 C 87.9273 % 11.24 C
1387 23-06-2015 00:00:00 11.71206 C 92.2057 % 10.49 C
1388 24-06-2015 00:00:00 14.96215 C 81.0417 % 11.74 C
1389 25-06-2015 00:00:00 17.94306 C 75.7118 % 13.6 C
1390 26-06-2015 00:00:00 19.40139 C 78.2465 % 15.52 C
1391 27-06-2015 00:00:00 20.26461 C 74.9877 % 15.69 C
1392 28-06-2015 00:00:00 18.39741 C 72.8405 % 13.44 C
1393 29-06-2015 00:00:00 23.63875 C 61.7438 % 15.87 C
1394 30-06-2015 00:00:00 21.94847 C 63.2710 % 14.65 C
1395 01-07-2015 00:00:00 24.13993 C 63.3022 % 16.73 C
1396 02-07-2015 00:00:00 26.83474 C 64.8246 % 19.66 C
1397 03-07-2015 00:00:00 28.2408 C 65.4400 % 21.14 C
1398 04-07-2015 00:00:00 27.77951 C 67.8229 % 21.29 C
1399 05-07-2015 00:00:00 26.75417 C 64.4028 % 19.47 C
1400 06-07-2015 00:00:00 23.89674 C 54.1630 % 14.07 C
Sensor: Nr:Datum:Temp:Feuchte:Taupunkt:
Aussen-T/F 1401 07-07-2015 00:00:00 23.4251 C 64.1833 % 16.27 C
1402 08-07-2015 00:00:00 17.62465 C 71.6944 % 12.45 C
1403 09-07-2015 00:00:00 16.50669 C 68.3134 % 10.65 C
1404 10-07-2015 00:00:00 17.02947 C 57.6175 % 8.61 C
1405 11-07-2015 00:00:00 21.24132 C 54.9340 % 11.83 C
1406 12-07-2015 00:00:00 19.0157 C 71.3264 % 13.71 C
1407 13-07-2015 00:00:00 17.93777 C 85.0638 % 15.39 C
1408 14-07-2015 00:00:00 21.06476 C 74.5551 % 16.37 C
1409 15-07-2015 00:00:00 21.59368 C 75.8000 % 17.14 C
1410 16-07-2015 00:00:00 24.00382 C 71.6667 % 18.57 C
1411 17-07-2015 00:00:00 28.34301 C 50.2206 % 16.99 C
1412 18-07-2015 00:00:00 23.63602 C 62.5441 % 16.06 C
1413 19-07-2015 00:00:00 21.84756 C 77.9451 % 17.83 C
1414 20-07-2015 00:00:00 22.02667 C 88.1833 % 19.98 C
1415 21-07-2015 00:00:00 26.21048 C 69.2476 % 20.13 C
1416 22-07-2015 00:00:00 23.3275 C 74.4857 % 18.53 C
1417 23-07-2015 00:00:00 20.60312 C 64.9514 % 13.78 C
1418 24-07-2015 00:00:00 21.45543 C 69.6180 % 15.67 C
1419 25-07-2015 00:00:00 17.38849 C 77.9048 % 13.5 C
1420 26-07-2015 00:00:00 15.82244 C 71.9961 % 10.79 C
1421 27-07-2015 00:00:00 17.63472 C 81.2604 % 14.39 C
1422 28-07-2015 00:00:00 17.16294 C 63.9825 % 10.3 C
1423 29-07-2015 00:00:00 17.78846 C 55.9808 % 8.9 C
1424 30-07-2015 00:00:00 14.2708 C 74.1720 % 9.74 C
1425 31-07-2015 00:00:00 16.9314 C 65.0744 % 10.33 C
Sensor: Nr:Datum:Temp:Feuchte:Taupunkt:
Aussen-T/F 1426 01-08-2015 00:00:00 19.24097 C 59.1319 % 11.07 C
1427 02-08-2015 00:00:00 20.84722 C 61.6979 % 13.23 C
1428 03-08-2015 00:00:00 23.19217 C 57.6157 % 14.37 C
1429 04-08-2015 00:00:00 19.03299 C 81.7396 % 15.84 C
1430 05-08-2015 00:00:00 19.79201 C 76.1424 % 15.47 C
1431 06-08-2015 00:00:00 24 C 66.2153 % 17.31 C
1432 07-08-2015 00:00:00 26.94306 C 61.3715 % 18.88 C
1433 08-08-2015 00:00:00 22.82014 C 79.2431 % 19.03 C
1434 09-08-2015 00:00:00 21.98785 C 77.7708 % 17.93 C
1435 10-08-2015 00:00:00 19.76944 C 83.2465 % 16.85 C
1436 11-08-2015 00:00:00 21.91979 C 74.4583 % 17.17 C
1437 12-08-2015 00:00:00 23.09896 C 77.4583 % 18.94 C
1438 13-08-2015 00:00:00 25.32292 C 70.7535 % 19.63 C
1439 14-08-2015 00:00:00 24.17396 C 69.3611 % 18.21 C
1440 15-08-2015 00:00:00 20.86319 C 72.4201 % 15.72 C
1441 16-08-2015 00:00:00 15.85799 C 89.8924 % 14.2 C
1442 17-08-2015 00:00:00 14.78889 C 90.7396 % 13.29 C
1443 18-08-2015 00:00:00 15.90625 C 82.9757 % 13.02 C
1444 19-08-2015 00:00:00 15.71493 C 78.1458 % 11.92 C
1445 20-08-2015 00:00:00 18.10382 C 74.0625 % 13.41 C
1446 21-08-2015 00:00:00 18.85764 C 70.1910 % 13.31 C
1447 22-08-2015 00:00:00 19.10729 C 64.2708 % 12.21 C
1448 23-08-2015 00:00:00 19.89722 C 63.7431 % 12.83 C
1449 24-08-2015 00:00:00 19.22187 C 83.3750 % 16.34 C
1450 25-08-2015 00:00:00 17.40729 C 68.3472 % 11.52 C
Sensor: Nr:Datum:Temp:Feuchte:Taupunkt:
Aussen-T/F 1451 26-08-2015 00:00:00 20.71458 C 65.1667 % 13.94 C
1452 27-08-2015 00:00:00 18.60486 C 83.2986 % 15.72 C
1453 28-08-2015 00:00:00 16.57292 C 89.2813 % 14.8 C
1454 29-08-2015 00:00:00 19.31181 C 88.3993 % 17.35 C
1455 30-08-2015 00:00:00 23.12396 C 82.7396 % 20.03 C
1456 31-08-2015 00:00:00 24.2934 C 69.7604 % 18.42 C
1457 01-09-2015 00:00:00 17.4059 C 90.9826 % 15.92 C
1458 02-09-2015 00:00:00 15.13229 C 84.9479 % 12.62 C
1459 03-09-2015 00:00:00 13.95937 C 84.7326 % 11.43 C
1460 04-09-2015 00:00:00 13.54792 C 79.5833 % 10.09 C
1461 05-09-2015 00:00:00 13.21701 C 84.4479 % 10.65 C
1462 06-09-2015 00:00:00 13.11632 C 74.0868 % 8.61 C
1463 07-09-2015 00:00:00 13.56493 C 87.0000 % 11.44 C
1464 08-09-2015 00:00:00 15.09236 C 84.9271 % 12.58 C
1465 09-09-2015 00:00:00 15.60139 C 76.2118 % 11.43 C
1466 10-09-2015 00:00:00 13.23854 C 76.5972 % 9.22 C
1467 11-09-2015 00:00:00 13.19792 C 79.2847 % 9.69 C
1468 12-09-2015 00:00:00 15.35312 C 83.7361 % 12.62 C
1469 13-09-2015 00:00:00 17.07153 C 92.6042 % 15.86 C
1470 14-09-2015 00:00:00 15.52639 C 91.7431 % 14.19 C
1471 15-09-2015 00:00:00 12.94931 C 87.0938 % 10.86 C
1472 16-09-2015 00:00:00 15.01667 C 93.7153 % 14.01 C
1473 17-09-2015 00:00:00 14.6566 C 91.2049 % 13.24 C
1474 18-09-2015 00:00:00 14.53542 C 85.5278 % 12.14 C
1475 19-09-2015 00:00:00 14.32292 C 87.2118 % 12.23 C
Sensor: Nr:Datum:Temp:Feuchte:Taupunkt:
Aussen-T/F 1476 20-09-2015 00:00:00 13.77188 C 84.7743 % 11.26 C
1477 21-09-2015 00:00:00 12.22847 C 90.1354 % 10.66 C
1478 22-09-2015 00:00:00 13.06701 C 91.6285 % 11.74 C
1479 23-09-2015 00:00:00 11.92535 C 93.3056 % 10.88 C
1480 24-09-2015 00:00:00 13.09618 C 90.9340 % 11.65 C
1481 25-09-2015 00:00:00 13.95278 C 87.2257 % 11.86 C
1482 26-09-2015 00:00:00 12.73889 C 89.2049 % 11.01 C
1483 27-09-2015 00:00:00 11.29236 C 83.7500 % 8.65 C
1484 28-09-2015 00:00:00 10.50729 C 82.5556 % 7.67 C
1485 29-09-2015 00:00:00 10.96979 C 81.2257 % 7.88 C
1486 30-09-2015 00:00:00 10.73368 C 77.8993 % 7.04 C
1487 01-10-2015 00:00:00 9.88646 C 74.8576 % 5.64 C
1488 02-10-2015 00:00:00 9.21528 C 85.2083 % 6.86 C
1489 03-10-2015 00:00:00 11.40139 C 85.8993 % 9.13 C
1490 04-10-2015 00:00:00 12.61562 C 91.5000 % 11.27 C
1491 05-10-2015 00:00:00 11.96597 C 92.3958 % 10.77 C
1492 06-10-2015 00:00:00 15.93854 C 95.3576 % 15.2 C
1493 07-10-2015 00:00:00 14.99028 C 89.4375 % 13.27 C
1494 08-10-2015 00:00:00 13.45521 C 86.9167 % 11.32 C
1495 09-10-2015 00:00:00 12.29618 C 93.3993 % 11.26 C
1496 10-10-2015 00:00:00 12.19271 C 87.9236 % 10.25 C
1497 11-10-2015 00:00:00 8.37431 C 76.8542 % 4.56 C
1498 12-10-2015 00:00:00 5.28229 C 82.6007 % 2.57 C
1499 13-10-2015 00:00:00 4.33542 C 90.2049 % 2.88 C
1500 14-10-2015 00:00:00 3.63333 C 95.0139 % 2.91 C
Sensor: Nr:Datum:Temp:Feuchte:Taupunkt:
Aussen-T/F 1501 15-10-2015 00:00:00 4.25694 C 95.2500 % 3.57 C
1502 16-10-2015 00:00:00 6.52431 C 92.4236 % 5.39 C
1503 17-10-2015 00:00:00 6.99375 C 89.5000 % 5.39 C
1504 18-10-2015 00:00:00 7.25556 C 90.9896 % 5.89 C
1505 19-10-2015 00:00:00 8.22361 C 91.6285 % 6.94 C
1506 20-10-2015 00:00:00 9.33576 C 93.8785 % 8.4 C
1507 21-10-2015 00:00:00 9.83611 C 91.5903 % 8.53 C
1508 22-10-2015 00:00:00 11.18472 C 88.5000 % 9.36 C
1509 23-10-2015 00:00:00 10.26979 C 95.0417 % 9.51 C
1510 24-10-2015 00:00:00 11.03438 C 89.7465 % 9.42 C
1511 25-10-2015 00:00:00 11.68229 C 92.6528 % 10.53 C
1512 26-10-2015 00:00:00 9.55312 C 94.6736 % 8.74 C
1513 27-10-2015 00:00:00 8.10278 C 94.6701 % 7.3 C
1514 28-10-2015 00:00:00 9.54444 C 91.5382 % 8.24 C
1515 29-10-2015 00:00:00 10.48299 C 92.5799 % 9.33 C
1516 30-10-2015 00:00:00 7.79965 C 95.7917 % 7.17 C
1517 31-10-2015 00:00:00 7.27118 C 93.9479 % 6.36 C
1518 01-11-2015 00:00:00 6.57708 C 96.2118 % 6.02 C
1519 02-11-2015 00:00:00 4.67431 C 96.7049 % 4.2 C
1520 03-11-2015 00:00:00 4.99896 C 95.2813 % 4.31 C
1521 04-11-2015 00:00:00 7.79549 C 94.1146 % 6.91 C
1522 05-11-2015 00:00:00 10.38299 C 95.2569 % 9.66 C
1523 06-11-2015 00:00:00 13.31493 C 92.8854 % 12.19 C
1524 07-11-2015 00:00:00 16.40417 C 94.1493 % 15.46 C
1525 08-11-2015 00:00:00 12.97292 C 95.2118 % 12.23 C
Sensor: Nr:Datum:Temp:Feuchte:Taupunkt:
Aussen-T/F 1526 09-11-2015 00:00:00 14.80846 C 83.2353 % 11.99 C
1527 10-11-2015 00:00:00 13.07951 C 84.1493 % 10.47 C
1528 11-11-2015 00:00:00 11.7066 C 84.5625 % 9.2 C
1529 12-11-2015 00:00:00 11.71562 C 87.6354 % 9.73 C
1530 13-11-2015 00:00:00 10.51875 C 88.3993 % 8.68 C
1531 14-11-2015 00:00:00 8.91806 C 83.4722 % 6.27 C
1532 15-11-2015 00:00:00 12.53854 C 84.1944 % 9.95 C
1533 16-11-2015 00:00:00 11.63438 C 83.7708 % 8.99 C
1534 17-11-2015 00:00:00 14.03889 C 89.3438 % 12.31 C
1535 18-11-2015 00:00:00 13.87604 C 73.4063 % 9.21 C
1536 19-11-2015 00:00:00 12.23611 C 85.8750 % 9.94 C
1537 20-11-2015 00:00:00 7.64444 C 94.6667 % 6.84 C
1538 21-11-2015 00:00:00 3.88021 C 91.2500 % 2.59 C
1539 22-11-2015 00:00:00 2.85139 C 91.2396 % 1.57 C
1540 23-11-2015 00:00:00 2.48125 C 91.7917 % 1.29 C
1541 24-11-2015 00:00:00 1.88785 C 89.9931 % 0.42 C
1542 25-11-2015 00:00:00 4.63646 C 91.6528 % 3.4 C
1543 26-11-2015 00:00:00 4.92257 C 92.5174 % 3.81 C
1544 27-11-2015 00:00:00 2.23299 C 94.7951 % 1.49 C
1545 28-11-2015 00:00:00 4.42821 C 85.6357 % 2.24 C
1546 29-11-2015 00:00:00 9.10451 C 86.0660 % 6.9 C
1547 30-11-2015 00:00:00 9.89514 C 90.3056 % 8.38 C
1548 01-12-2015 00:00:00 11.24618 C 92.4410 % 10.07 C
1549 02-12-2015 00:00:00 9.85729 C 87.9375 % 7.96 C
1550 03-12-2015 00:00:00 7.55664 C 86.3252 % 5.42 C
Sensor: Nr:Datum:Temp:Feuchte:Taupunkt:
Aussen-T/F 1551 04-12-2015 00:00:00 6.93333 C 91.5694 % 5.66 C
1552 05-12-2015 00:00:00 6.05903 C 89.7500 % 4.51 C
1553 06-12-2015 00:00:00 8.44861 C 86.8160 % 6.38 C
1554 07-12-2015 00:00:00 8.35868 C 92.6840 % 7.24 C
1555 08-12-2015 00:00:00 4.51007 C 97.2292 % 4.11 C
1556 09-12-2015 00:00:00 6.58229 C 94.7396 % 5.8 C
1557 10-12-2015 00:00:00 3.22882 C 93.5590 % 2.29 C
1558 11-12-2015 00:00:00 4.75451 C 92.5069 % 3.65 C
1559 12-12-2015 00:00:00 8.05903 C 95.3681 % 7.36 C
1560 13-12-2015 00:00:00 8.6316 C 90.9167 % 7.23 C
1561 14-12-2015 00:00:00 5.9875 C 96.5243 % 5.48 C
1562 15-12-2015 00:00:00 5.6816 C 96.2813 % 5.14 C
1563 16-12-2015 00:00:00 9.66146 C 97.4514 % 9.28 C
1564 17-12-2015 00:00:00 12.51647 C 94.1098 % 11.6 C
1565 18-12-2015 00:00:00 11.17396 C 93.8472 % 10.22 C
1566 19-12-2015 00:00:00 11.26667 C 91.7708 % 9.98 C
1567 20-12-2015 00:00:00 7.84687 C 96.5278 % 7.33 C
1568 21-12-2015 00:00:00 10.07014 C 88.0938 % 8.19 C
1569 22-12-2015 00:00:00 11.62281 C 82.5175 % 8.75 C
1570 23-12-2015 00:00:00 10.964 C 81.0000 % 7.83 C
1571 24-12-2015 00:00:00 11.76867 C 85.1506 % 9.36 C
1572 25-12-2015 00:00:00 11.08646 C 87.9063 % 9.16 C
1573 26-12-2015 00:00:00 10.37257 C 87.6354 % 8.41 C
1574 27-12-2015 00:00:00 7.5375 C 92.7847 % 6.45 C
1575 28-12-2015 00:00:00 2.6941 C 97.0833 % 2.28 C
Sensor: Nr:Datum:Temp:Feuchte:Taupunkt:
Aussen-T/F 1576 29-12-2015 00:00:00 3.10521 C 97.6493 % 2.77 C
1577 30-12-2015 00:00:00 4.88299 C 93.8507 % 3.98 C
1578 31-12-2015 00:00:00 5.0934 C 93.0000 % 4.06 C
1579 01-01-2016 00:00:00 4.17222 C 95.5521 % 3.53 C
1580 02-01-2016 00:00:00 4.50451 C 93.6563 % 3.57 C
1581 03-01-2016 00:00:00 5.64826 C 92.3889 % 4.51 C
1582 04-01-2016 00:00:00 5.3184 C 94.4861 % 4.51 C
1583 05-01-2016 00:00:00 6.45694 C 91.6285 % 5.2 C
1584 06-01-2016 00:00:00 5.95903 C 94.3542 % 5.12 C
1585 07-01-2016 00:00:00 5.04028 C 94.1042 % 4.17 C
1586 08-01-2016 00:00:00 3.28646 C 90.7396 % 1.92 C
1587 09-01-2016 00:00:00 1.12292 C 97.2361 % 0.73 C
1588 10-01-2016 00:00:00 6.27708 C 91.8785 % 5.06 C
1589 11-01-2016 00:00:00 5.25729 C 94.6875 % 4.48 C
1590 12-01-2016 00:00:00 5.58229 C 88.8229 % 3.89 C
1591 13-01-2016 00:00:00 4.93333 C 89.9931 % 3.43 C
1592 14-01-2016 00:00:00 3.31701 C 89.1944 % 1.71 C
1593 15-01-2016 00:00:00 2.89062 C 90.6806 % 1.52 C
1594 16-01-2016 00:00:00 2.0875 C 90.9653 % 0.77 C
1595 17-01-2016 00:00:00 0.26424 C 83.9583 % -2.12 C
1596 18-01-2016 00:00:00 -4.85799 C 90.6840 % -6.14 C
1597 19-01-2016 00:00:00 -5.27882 C 89.7257 % -6.7 C
1598 20-01-2016 00:00:00 -1.61806 C 91.4618 % -2.82 C
1599 21-01-2016 00:00:00 0.6684 C 92.9618 % -0.34 C
1600 22-01-2016 00:00:00 -2.10729 C 91.9201 % -3.24 C
Sensor: Nr:Datum:Temp:Feuchte:Taupunkt:
Aussen-T/F 1601 23-01-2016 00:00:00 4.1559 C 94.7465 % 3.39 C
1602 24-01-2016 00:00:00 5.37396 C 93.7882 % 4.46 C
1603 25-01-2016 00:00:00 7.51076 C 93.2813 % 6.5 C
1604 26-01-2016 00:00:00 9.35729 C 85.4410 % 7.04 C
1605 27-01-2016 00:00:00 11.44792 C 70.5313 % 6.29 C
1606 28-01-2016 00:00:00 7.3625 C 85.9931 % 5.18 C
1607 29-01-2016 00:00:00 5.64583 C 86.0833 % 3.51 C
1608 30-01-2016 00:00:00 7.42914 C 86.8885 % 5.39 C
1609 31-01-2016 00:00:00 6.31944 C 89.3819 % 4.7 C
1610 01-02-2016 00:00:00 11.92326 C 84.3993 % 9.38 C
1611 02-02-2016 00:00:00 10.40035 C 86.6354 % 8.27 C
1612 03-02-2016 00:00:00 5.14306 C 85.1354 % 2.86 C
1613 04-02-2016 00:00:00 4.62118 C 90.7153 % 3.24 C
1614 05-02-2016 00:00:00 7.46076 C 91.2847 % 6.13 C
1615 06-02-2016 00:00:00 8.36806 C 86.5069 % 6.25 C
1616 07-02-2016 00:00:00 9.22743 C 76.8021 % 5.37 C
1617 08-02-2016 00:00:00 8.09062 C 80.4167 % 4.93 C
1618 09-02-2016 00:00:00 7.11076 C 85.9306 % 4.92 C
1619 10-02-2016 00:00:00 4.86562 C 85.1493 % 2.59 C
1620 11-02-2016 00:00:00 4.89444 C 87.2674 % 2.96 C
1621 12-02-2016 00:00:00 3.0316 C 85.9826 % 0.92 C
1622 13-02-2016 00:00:00 1.57049 C 93.5625 % 0.65 C
1623 14-02-2016 00:00:00 4.64965 C 94.9931 % 3.92 C
1624 15-02-2016 00:00:00 2.20278 C 91.7396 % 1 C
1625 16-02-2016 00:00:00 0.19792 C 81.4688 % -2.59 C
Sensor: Nr:Datum:Temp:Feuchte:Taupunkt:
Aussen-T/F 1626 17-02-2016 00:00:00 0.40625 C 88.6771 % -1.24 C
1627 18-02-2016 00:00:00 2.11285 C 85.4514 % -0.07 C
1628 19-02-2016 00:00:00 1.43507 C 92.3472 % 0.33 C
1629 20-02-2016 00:00:00 6.41528 C 92.1944 % 5.24 C
1630 21-02-2016 00:00:00 11.8375 C 88.1042 % 9.93 C
1631 22-02-2016 00:00:00 9.57778 C 85.1250 % 7.21 C
1632 23-02-2016 00:00:00 2.26424 C 95.8333 % 1.67 C
1633 24-02-2016 00:00:00 2.15243 C 91.2674 % 0.88 C
1634 25-02-2016 00:00:00 0.66597 C 90.3507 % -0.73 C
1635 26-02-2016 00:00:00 2.36771 C 85.4931 % 0.19 C
1636 27-02-2016 00:00:00 2.35694 C 77.3333 % -1.19 C
1637 28-02-2016 00:00:00 2.12509 C 77.4145 % -1.4 C
1638 29-02-2016 00:00:00 3.32569 C 70.7847 % -1.46 C
1639 01-03-2016 00:00:00 1.1875 C 81.7361 % -1.58 C
1640 02-03-2016 00:00:00 6.5125 C 83.4375 % 3.91 C
1641 03-03-2016 00:00:00 3.61736 C 87.0208 % 1.66 C
1642 04-03-2016 00:00:00 1.76528 C 93.4722 % 0.83 C
1643 05-03-2016 00:00:00 4.32153 C 92.1042 % 3.16 C
1644 06-03-2016 00:00:00 3.0434 C 94.2535 % 2.21 C
1645 07-03-2016 00:00:00 2.40347 C 93.7049 % 1.5 C
1646 08-03-2016 00:00:00 1.75521 C 90.5972 % 0.39 C
1647 09-03-2016 00:00:00 2.60799 C 83.1042 % 0.04 C
1648 10-03-2016 00:00:00 2.73576 C 83.8264 % 0.28 C
1649 11-03-2016 00:00:00 4.25868 C 83.4757 % 1.71 C
1650 12-03-2016 00:00:00 4.36424 C 78.1215 % 0.9 C
Sensor: Nr:Datum:Temp:Feuchte:Taupunkt:
Aussen-T/F 1651 13-03-2016 00:00:00 5.06944 C 77.3924 % 1.45 C
1652 14-03-2016 00:00:00 4.20451 C 71.0174 % -0.57 C
1653 15-03-2016 00:00:00 3.53264 C 80.5833 % 0.52 C
1654 16-03-2016 00:00:00 4.7066 C 73.0556 % 0.3 C
1655 17-03-2016 00:00:00 4.57049 C 75.0625 % 0.54 C
1656 18-03-2016 00:00:00 3.8934 C 83.0868 % 1.29 C
1657 19-03-2016 00:00:00 5.67465 C 87.0938 % 3.7 C
1658 20-03-2016 00:00:00 5.89583 C 80.9514 % 2.88 C
1659 21-03-2016 00:00:00 7.0625 C 84.7813 % 4.68 C
1660 22-03-2016 00:00:00 8.10035 C 79.6354 % 4.8 C
1661 23-03-2016 00:00:00 7.93438 C 81.8576 % 5.03 C
1662 24-03-2016 00:00:00 7.05069 C 85.9410 % 4.86 C
1663 25-03-2016 00:00:00 6.93125 C 92.5347 % 5.81 C
1664 26-03-2016 00:00:00 9.02778 C 82.5382 % 6.22 C
1665 27-03-2016 00:00:00 9.36558 C 82.0543 % 6.46 C
1666 28-03-2016 00:00:00 8.24167 C 84.3993 % 5.77 C
1667 29-03-2016 00:00:00 9.19792 C 74.2535 % 4.86 C
1668 30-03-2016 00:00:00 9.98958 C 84.7431 % 7.54 C
1669 31-03-2016 00:00:00 7.10243 C 92.7153 % 6 C
1670 01-04-2016 00:00:00 7.02396 C 85.1076 % 4.7 C
1671 02-04-2016 00:00:00 8.56007 C 85.2361 % 6.23 C
1672 03-04-2016 00:00:00 13.56285 C 81.3472 % 10.43 C
1673 04-04-2016 00:00:00 13.63299 C 81.7951 % 10.58 C
1674 05-04-2016 00:00:00 11.25069 C 92.5313 % 10.09 C
1675 06-04-2016 00:00:00 10.87153 C 79.3507 % 7.44 C
Sensor: Nr:Datum:Temp:Feuchte:Taupunkt:
Aussen-T/F 1676 07-04-2016 00:00:00 8.49479 C 75.7014 % 4.46 C
1677 08-04-2016 00:00:00 6.48403 C 79.6181 % 3.22 C
1678 09-04-2016 00:00:00 8.00139 C 72.3785 % 3.34 C
1679 10-04-2016 00:00:00 11.74757 C 69.9479 % 6.45 C
1680 11-04-2016 00:00:00 12.00972 C 70.4757 % 6.81 C
1681 12-04-2016 00:00:00 11.31181 C 78.9861 % 7.8 C
1682 13-04-2016 00:00:00 8.81354 C 93.8854 % 7.88 C
1683 14-04-2016 00:00:00 10.59722 C 80.6215 % 7.41 C
1684 15-04-2016 00:00:00 13.04618 C 74.1493 % 8.55 C
1685 16-04-2016 00:00:00 11.99514 C 81.5035 % 8.93 C
1686 17-04-2016 00:00:00 8.41111 C 77.1875 % 4.65 C
1687 18-04-2016 00:00:00 7.11632 C 74.6910 % 2.94 C
1688 19-04-2016 00:00:00 8.83507 C 72.7292 % 4.22 C
1689 20-04-2016 00:00:00 9.1559 C 66.4826 % 3.25 C
1690 21-04-2016 00:00:00 11.43229 C 64.2431 % 4.93 C
1691 22-04-2016 00:00:00 13.17674 C 62.2014 % 6.11 C
1692 23-04-2016 00:00:00 7.88299 C 78.2292 % 4.33 C
1693 24-04-2016 00:00:00 5.24444 C 78.5243 % 1.82 C
1694 25-04-2016 00:00:00 4.71632 C 85.9792 % 2.58 C
1695 26-04-2016 00:00:00 4.5934 C 82.9306 % 1.95 C
1696 27-04-2016 00:00:00 5.57465 C 78.2847 % 2.1 C
1697 28-04-2016 00:00:00 6.65 C 71.1007 % 1.8 C
1698 29-04-2016 00:00:00 7.88056 C 69.0972 % 2.58 C
1699 30-04-2016 00:00:00 7.70174 C 83.3611 % 5.06 C
1700 01-05-2016 00:00:00 10.10486 C 81.5451 % 7.09 C
Sensor: Nr:Datum:Temp:Feuchte:Taupunkt:
Aussen-T/F 1701 02-05-2016 00:00:00 12.06389 C 73.2674 % 7.43 C
1702 03-05-2016 00:00:00 10.93785 C 75.7222 % 6.83 C
1703 04-05-2016 00:00:00 9.10035 C 68.4063 % 3.6 C
1704 05-05-2016 00:00:00 11.45347 C 67.3507 % 5.63 C
1705 06-05-2016 00:00:00 15.34618 C 68.6806 % 9.63 C
1706 07-05-2016 00:00:00 16.83542 C 65.2604 % 10.28 C
1707 08-05-2016 00:00:00 18.59861 C 52.5521 % 8.72 C
1708 09-05-2016 00:00:00 18.28715 C 61.7326 % 10.82 C
1709 10-05-2016 00:00:00 17.08646 C 77.6076 % 13.15 C
1710 11-05-2016 00:00:00 17.43438 C 75.9340 % 13.15 C
1711 12-05-2016 00:00:00 17.84271 C 69.8472 % 12.27 C
1712 13-05-2016 00:00:00 14.31736 C 89.5903 % 12.63 C
1713 14-05-2016 00:00:00 10.45972 C 71.9549 % 5.63 C
1714 15-05-2016 00:00:00 9.07743 C 70.0069 % 3.91 C
1715 16-05-2016 00:00:00 9.98819 C 70.5069 % 4.88 C
1716 17-05-2016 00:00:00 12.31563 C 69.0139 % 6.8 C
1717 18-05-2016 00:00:00 14.47535 C 74.1007 % 9.92 C
1718 19-05-2016 00:00:00 14.04722 C 75.6667 % 9.82 C
1719 20-05-2016 00:00:00 14.08125 C 79.6771 % 10.63 C
1720 21-05-2016 00:00:00 17.67708 C 74.5382 % 13.1 C
1721 22-05-2016 00:00:00 18.70312 C 72.9201 % 13.75 C
1722 23-05-2016 00:00:00 14.01632 C 83.2743 % 11.23 C
1723 24-05-2016 00:00:00 10.97431 C 91.3264 % 9.62 C
1724 25-05-2016 00:00:00 12.7125 C 87.5069 % 10.69 C
1725 26-05-2016 00:00:00 14.89826 C 81.0938 % 11.69 C
Sensor: Nr:Datum:Temp:Feuchte:Taupunkt:
Aussen-T/F 1726 27-05-2016 00:00:00 16.77849 C 90.6534 % 15.24 C
1727 28-05-2016 00:00:00 18.08383 C 88.8922 % 16.22 C
1728 29-05-2016 00:00:00 17.36528 C 89.6007 % 15.64 C
1729 30-05-2016 00:00:00 17.49722 C 93.2639 % 16.4 C
1730 31-05-2016 00:00:00 16.51458 C 87.4861 % 14.43 C
1731 01-06-2016 00:00:00 15.69931 C 94.7153 % 14.85 C
1732 02-06-2016 00:00:00 17.51979 C 92.0035 % 16.21 C
1733 03-06-2016 00:00:00 16.76875 C 94.6806 % 15.91 C
1734 04-06-2016 00:00:00 17.85104 C 90.8472 % 16.34 C
1735 05-06-2016 00:00:00 19.18611 C 89.0486 % 17.34 C
1736 06-06-2016 00:00:00 19.18785 C 86.9896 % 16.97 C
1737 07-06-2016 00:00:00 19.88403 C 82.1597 % 16.75 C
1738 08-06-2016 00:00:00 19.56354 C 77.2500 % 15.47 C
1739 09-06-2016 00:00:00 17.3191 C 71.5556 % 12.13 C
1740 10-06-2016 00:00:00 16.15521 C 71.4444 % 10.99 C
1741 11-06-2016 00:00:00 17.56701 C 74.5035 % 12.99 C
1742 12-06-2016 00:00:00 17.18299 C 86.9931 % 15 C
1743 13-06-2016 00:00:00 15.94479 C 94.8472 % 15.12 C
1744 14-06-2016 00:00:00 16.36597 C 87.8507 % 14.35 C
1745 15-06-2016 00:00:00 15.42431 C 86.9340 % 13.26 C
1746 16-06-2016 00:00:00 13.77292 C 93.5903 % 12.76 C
1747 17-06-2016 00:00:00 14.68889 C 90.7882 % 13.2 C
1748 18-06-2016 00:00:00 14.84861 C 87.4549 % 12.79 C
1749 19-06-2016 00:00:00 15.40278 C 75.9653 % 11.19 C
1750 20-06-2016 00:00:00 14.61979 C 81.8958 % 11.56 C
Sensor: Nr:Datum:Temp:Feuchte:Taupunkt:
Aussen-T/F 1751 21-06-2016 00:00:00 18.21736 C 88.4757 % 16.28 C
1752 22-06-2016 00:00:00 20.84792 C 87.8333 % 18.76 C
1753 23-06-2016 00:00:00 23.76528 C 81.5243 % 20.41 C
1754 24-06-2016 00:00:00 22.11979 C 90.4826 % 20.49 C
1755 25-06-2016 00:00:00 16.85451 C 95.9306 % 16.2 C
1756 26-06-2016 00:00:00 15.41562 C 85.3854 % 12.98 C
1757 27-06-2016 00:00:00 15.91562 C 86.7743 % 13.72 C
1758 28-06-2016 00:00:00 18.26597 C 84.3646 % 15.58 C
1759 29-06-2016 00:00:00 19.04444 C 74.5521 % 14.42 C
1760 30-06-2016 00:00:00 18.7566 C 80.8264 % 15.4 C
1761 01-07-2016 00:00:00 19.88194 C 81.0556 % 16.54 C
1762 02-07-2016 00:00:00 16.90868 C 78.6840 % 13.18 C
1763 03-07-2016 00:00:00 15.21559 C 83.5437 % 12.45 C
1764 04-07-2016 00:00:00 17.43333 C 82.9201 % 14.5 C
1765 05-07-2016 00:00:00 19.40903 C 78.1979 % 15.51 C
1766 06-07-2016 00:00:00 16.61042 C 74.0104 % 11.96 C
1767 07-07-2016 00:00:00 17.08576 C 77.8785 % 13.2 C
1768 08-07-2016 00:00:00 18.87222 C 80.7292 % 15.49 C
1769 09-07-2016 00:00:00 21.08889 C 76.2778 % 16.75 C
1770 10-07-2016 00:00:00 21.92535 C 79.2431 % 18.17 C
1771 11-07-2016 00:00:00 21.61701 C 73.7326 % 16.73 C
1772 12-07-2016 00:00:00 19.06354 C 74.7049 % 14.47 C
1773 13-07-2016 00:00:00 14.71319 C 91.3750 % 13.32 C
1774 14-07-2016 00:00:00 14.94583 C 79.4063 % 11.42 C
1775 15-07-2016 00:00:00 16.08229 C 74.0417 % 11.46 C
Sensor: Nr:Datum:Temp:Feuchte:Taupunkt:
Aussen-T/F 1776 16-07-2016 00:00:00 16.98542 C 83.0451 % 14.09 C
1777 17-07-2016 00:00:00 21.34757 C 80.4132 % 17.84 C
1778 18-07-2016 00:00:00 21.85069 C 75.3924 % 17.3 C
1779 19-07-2016 00:00:00 21.61667 C 78.1597 % 17.65 C
1780 20-07-2016 00:00:00 23.34097 C 74.8785 % 18.63 C
1781 21-07-2016 00:00:00 21.23924 C 86.6632 % 18.93 C
1782 22-07-2016 00:00:00 20.96806 C 88.7674 % 19.04 C
1783 23-07-2016 00:00:00 20.3434 C 91.5104 % 18.91 C
1784 24-07-2016 00:00:00 22.0941 C 85.4583 % 19.54 C
1785 25-07-2016 00:00:00 21.8191 C 81.6910 % 18.55 C
1786 26-07-2016 00:00:00 20.20208 C 86.3333 % 17.85 C
1787 27-07-2016 00:00:00 19.62986 C 81.0313 % 16.29 C
1788 28-07-2016 00:00:00 20.20174 C 82.7986 % 17.18 C
1789 29-07-2016 00:00:00 19.81042 C 85.1319 % 17.24 C
1790 30-07-2016 00:00:00 20.55278 C 78.7326 % 16.73 C
1791 31-07-2016 00:00:00 18.14444 C 80.7535 % 14.79 C
1792 01-08-2016 00:00:00 16.63958 C 78.4757 % 12.88 C
1793 02-08-2016 00:00:00 16.16875 C 92.2986 % 14.92 C
1794 03-08-2016 00:00:00 18.55174 C 94.0938 % 17.58 C
1795 04-08-2016 00:00:00 18.01667 C 94.7188 % 17.16 C
1796 05-08-2016 00:00:00 16.58403 C 88.5486 % 14.69 C
1797 06-08-2016 00:00:00 17.59097 C 86.3924 % 15.29 C
1798 07-08-2016 00:00:00 18.92153 C 81.4306 % 15.67 C
1799 08-08-2016 00:00:00 19.25521 C 77.6701 % 15.26 C
1800 09-08-2016 00:00:00 16.42986 C 72.2361 % 11.42 C
Sensor: Nr:Datum:Temp:Feuchte:Taupunkt:
Aussen-T/F 1801 10-08-2016 00:00:00 13.02465 C 80.0243 % 9.66 C
1802 11-08-2016 00:00:00 12.3 C 83.5417 % 9.6 C
1803 12-08-2016 00:00:00 17.31701 C 90.8264 % 15.8 C
1804 13-08-2016 00:00:00 20.62604 C 78.3715 % 16.73 C
1805 14-08-2016 00:00:00 19.08924 C 80.5139 % 15.66 C
1806 15-08-2016 00:00:00 18.95451 C 78.0243 % 15.04 C
1807 16-08-2016 00:00:00 18.07778 C 75.1632 % 13.61 C
1808 17-08-2016 00:00:00 18.14653 C 73.3785 % 13.31 C
1809 18-08-2016 00:00:00 17.22743 C 82.1597 % 14.16 C
1810 19-08-2016 00:00:00 19.36181 C 83.5174 % 16.5 C
1811 20-08-2016 00:00:00 18.84757 C 83.1701 % 15.93 C
1812 21-08-2016 00:00:00 17.07361 C 80.3611 % 13.67 C
1813 22-08-2016 00:00:00 17.30799 C 84.0833 % 14.59 C
1814 23-08-2016 00:00:00 19.09167 C 77.7708 % 15.12 C
1815 24-08-2016 00:00:00 20.54583 C 77.3750 % 16.45 C
1816 25-08-2016 00:00:00 21.59896 C 76.2118 % 17.23 C
1817 26-08-2016 00:00:00 22.53715 C 76.8542 % 18.27 C
1818 27-08-2016 00:00:00 23.96528 C 78.7674 % 20.05 C
1819 28-08-2016 00:00:00 23.4684 C 72.0660 % 18.14 C
1820 29-08-2016 00:00:00 18.98993 C 79.2326 % 15.31 C
1821 30-08-2016 00:00:00 18.11736 C 75.7917 % 13.78 C
1822 31-08-2016 00:00:00 17.84514 C 77.5278 % 13.86 C
1823 01-09-2016 00:00:00 19.62431 C 75.6736 % 15.21 C
1824 02-09-2016 00:00:00 18.78785 C 78.7361 % 15.02 C
1825 03-09-2016 00:00:00 20.71944 C 73.6319 % 15.84 C
Sensor: Nr:Datum:Temp:Feuchte:Taupunkt:
Aussen-T/F 1826 04-09-2016 00:00:00 18.18681 C 81.7396 % 15.02 C
1827 05-09-2016 00:00:00 17.73715 C 79.3021 % 14.11 C

Maximal/Minimal-Werte vom 06.09.2011 - 05.09.2016

Sensor Min Max Avg
Temp
(Aussen-T/F)
-15.3 °C
07-02-2012  08:00:00
38.6 °C
04-07-2015  16:30:00
10.92 °C
Feuchte
(Aussen-T/F)
18 %
17-07-2015  15:55:00
100 %
07-10-2012  03:05:00
82.5 %
Taupunkt
(Aussen-T/F)
-15.35 C
02-02-2012  00:00:00
21.36 C
19-06-2013  00:00:00
7.84 C

Die Daten stammen von einer Davis Vantage Pro 2 Wetter-Station und werden unter Linux mit der Software wview2wettercgi und aufbereitet. Alle Angaben erfolgen ohne Gewähr für ihre Vollständigkeit oder Richtigkeit.
Kontakt: Rainer Krienke krienke@uni-koblenz.de . Meine Webseiten an der Uni Koblenz oder privat.
Version: $Revision: 0.78 $